| time (UTC) | temp F | wind direction | speed MPH | gust MPH | rain 1hr in | rain 24hr in | rain mn in | humidity % | barometer mb |
| 20260507074028 | 62 | 217 | 3.0 | 14.0 | 0.00 | 0.00 | 0.00 | 100 | 951.8 |
| 20260507073825 | 62 | 228 | 3.0 | 7.0 | 0.00 | 0.00 | 0.00 | 100 | 951.6 |
| 20260507073622 | 62 | 225 | 2.0 | 8.0 | 0.00 | 0.00 | 0.00 | 100 | 951.6 |
| 20260507073521 | 62 | 0 | 2.0 | 8.0 | 0.00 | 0.00 | 0.00 | 100 | 951.8 |
| 20260507073419 | 62 | 0 | 2.0 | 8.0 | 0.00 | 0.00 | 0.00 | 100 | 951.8 |
| 20260507073215 | 62 | 0 | 2.0 | 8.0 | 0.00 | 0.00 | 0.00 | 100 | 951.6 |
| 20260507073012 | 61 | 0 | 2.0 | 7.0 | 0.00 | 0.00 | 0.00 | 100 | 951.7 |
| 20260507072911 | 61 | 0 | 2.0 | 10.0 | 0.00 | 0.00 | 0.00 | 100 | 951.6 |
| 20260507072809 | 61 | 236 | 3.0 | 16.0 | 0.00 | 0.00 | 0.00 | 100 | 951.6 |
| 20260507072606 | 61 | 230 | 3.0 | 16.0 | 0.00 | 0.00 | 0.00 | 100 | 951.6 |
| 20260507072403 | 61 | 226 | 3.0 | 13.0 | 0.00 | 0.00 | 0.00 | 100 | 951.6 |
| 20260507072306 | 61 | 223 | 3.0 | 13.0 | 0.00 | 0.00 | 0.00 | 100 | 951.5 |
| 20260507072200 | 61 | 218 | 3.0 | 13.0 | 0.00 | 0.00 | 0.00 | 100 | 951.6 |
| 20260507072003 | 61 | 235 | 2.0 | 13.0 | 0.00 | 0.00 | 0.00 | 100 | 951.5 |
| 20260507071753 | 61 | 243 | 2.0 | 7.0 | 0.00 | 0.00 | 0.00 | 100 | 951.4 |
| 20260507071652 | 61 | 231 | 2.0 | 7.0 | 0.00 | 0.00 | 0.00 | 100 | 951.5 |
| 20260507071606 | 61 | 229 | 2.0 | 9.0 | 0.00 | 0.00 | 0.00 | 100 | 951.5 |
| 20260507071347 | 61 | 238 | 3.0 | 19.0 | 0.00 | 0.00 | 0.00 | 100 | 951.5 |
| 20260507071144 | 61 | 234 | 3.0 | 19.0 | 0.00 | 0.00 | 0.00 | 100 | 951.5 |
| 20260507071043 | 61 | 236 | 3.0 | 19.0 | 0.00 | 0.00 | 0.00 | 100 | 951.2 |
| 20260507070940 | 62 | 236 | 2.0 | 8.0 | 0.00 | 0.00 | 0.00 | 100 | 951.4 |
| 20260507070738 | 61 | 234 | 2.0 | 11.0 | 0.00 | 0.00 | 0.00 | 100 | 951.3 |
| 20260507070534 | 61 | 269 | 4.0 | 15.0 | 0.00 | 0.00 | 0.00 | 100 | 951.4 |
| 20260507070434 | 61 | 269 | 5.0 | 15.0 | 0.00 | 0.00 | 0.00 | 100 | 951.3 |
| 20260507070331 | 61 | 269 | 4.0 | 15.0 | 0.00 | 0.00 | 0.00 | 100 | 951.3 |
| 20260507070129 | 61 | 242 | 2.0 | 10.0 | 0.00 | 0.00 | 0.00 | 100 | 951.3 |
| 20260507065925 | 61 | 233 | 2.0 | 11.0 | 0.00 | 0.00 | 0.00 | 100 | 951.3 |
| 20260507065825 | 61 | 227 | 3.0 | 11.0 | 0.00 | 0.00 | 0.00 | 100 | 951.2 |
| 20260507065722 | 61 | 227 | 3.0 | 11.0 | 0.00 | 0.00 | 0.00 | 100 | 951.3 |
| 20260507065519 | 61 | 220 | 3.0 | 17.0 | 0.00 | 0.00 | 0.00 | 100 | 951.2 |
| 20260507065315 | 61 | 234 | 3.0 | 17.0 | 0.00 | 0.00 | 0.00 | 100 | 951.2 |
| 20260507065215 | 61 | 248 | 4.0 | 14.0 | 0.00 | 0.00 | 0.00 | 100 | 951.2 |
| 20260507065113 | 61 | 258 | 5.0 | 13.0 | 0.00 | 0.00 | 0.00 | 100 | 951.2 |
| 20260507064909 | 61 | 271 | 5.0 | 16.0 | 0.00 | 0.00 | 0.00 | 100 | 951.1 |
| 20260507064706 | 62 | 260 | 2.0 | 12.0 | 0.00 | 0.00 | 0.00 | 100 | 951.1 |
| 20260507064605 | 62 | 223 | 2.0 | 6.0 | 0.00 | 0.00 | 0.00 | 100 | 951.1 |
| 20260507064503 | 62 | 217 | 2.0 | 7.0 | 0.00 | 0.00 | 0.00 | 100 | 951.2 |
| 20260507064300 | 62 | 220 | 2.0 | 10.0 | 0.00 | 0.00 | 0.00 | 100 | 951.2 |
| 20260507064056 | 62 | 222 | 2.0 | 10.0 | 0.00 | 0.00 | 0.00 | 100 | 951.2 |
| 20260507063955 | 62 | 220 | 2.0 | 10.0 | 0.00 | 0.00 | 0.00 | 100 | 951.2 |
| 20260507063850 | 62 | 234 | 2.0 | 9.0 | 0.00 | 0.00 | 0.00 | 100 | 951.1 |
| 20260507063647 | 62 | 253 | 2.0 | 10.0 | 0.00 | 0.00 | 0.00 | 100 | 951.3 |
| 20260507063443 | 62 | 247 | 2.0 | 13.0 | 0.00 | 0.00 | 0.00 | 100 | 951.2 |
| 20260507063342 | 62 | 249 | 2.0 | 13.0 | 0.00 | 0.00 | 0.00 | 100 | 951.2 |
| 20260507063240 | 61 | 254 | 2.0 | 13.0 | 0.00 | 0.00 | 0.00 | 100 | 951.2 |
| 20260507063037 | 61 | 260 | 3.0 | 18.0 | 0.00 | 0.00 | 0.00 | 100 | 951.1 |
| 20260507062841 | 61 | 248 | 4.0 | 18.0 | 0.00 | 0.00 | 0.00 | 100 | 951.2 |
| 20260507062732 | 61 | 243 | 4.0 | 18.0 | 0.00 | 0.00 | 0.00 | 100 | 951.0 |
| 20260507062630 | 61 | 240 | 4.0 | 18.0 | 0.00 | 0.00 | 0.00 | 100 | 951.0 |
| 20260507062426 | 61 | 224 | 3.0 | 13.0 | 0.00 | 0.00 | 0.00 | 100 | 951.1 |
| 20260507062223 | 61 | 222 | 3.0 | 13.0 | 0.00 | 0.00 | 0.00 | 100 | 951.1 |
| 20260507062123 | 60 | 225 | 2.0 | 12.0 | 0.00 | 0.00 | 0.00 | 100 | 951.1 |
| 20260507062020 | 60 | 237 | 2.0 | 17.0 | 0.00 | 0.00 | 0.00 | 100 | 951.1 |
| 20260507061817 | 60 | 240 | 4.0 | 17.0 | 0.00 | 0.00 | 0.00 | 100 | 951.1 |
| 20260507061613 | 60 | 238 | 5.0 | 17.0 | 0.00 | 0.00 | 0.00 | 100 | 950.9 |
| 20260507061513 | 60 | 244 | 6.0 | 20.0 | 0.00 | 0.00 | 0.00 | 100 | 950.9 |
| 20260507061410 | 60 | 241 | 5.0 | 20.0 | 0.00 | 0.00 | 0.00 | 100 | 951.0 |
| 20260507061207 | 60 | 249 | 5.0 | 20.0 | 0.00 | 0.00 | 0.00 | 100 | 950.8 |
| 20260507061004 | 60 | 247 | 3.0 | 12.0 | 0.00 | 0.00 | 0.00 | 100 | 950.9 |
| 20260507060904 | 60 | 242 | 3.0 | 14.0 | 0.00 | 0.00 | 0.00 | 100 | 951.0 |
| 20260507060801 | 60 | 242 | 3.0 | 14.0 | 0.00 | 0.00 | 0.00 | 100 | 950.9 |
| 20260507060557 | 60 | 240 | 4.0 | 14.0 | 0.00 | 0.00 | 0.00 | 100 | 950.9 |
| 20260507060354 | 60 | 218 | 2.0 | 9.0 | 0.00 | 0.00 | 0.00 | 100 | 950.9 |
| 20260507060253 | 60 | 214 | 2.0 | 9.0 | 0.00 | 0.00 | 0.00 | 100 | 950.8 |
| 20260507060150 | 60 | 215 | 3.0 | 12.0 | 0.00 | 0.00 | 0.00 | 100 | 950.8 |
| 20260507055958 | 60 | 237 | 4.0 | 14.0 | 0.00 | 0.00 | 0.00 | 100 | 950.7 |
| 20260507055744 | 60 | 239 | 3.0 | 10.0 | 0.00 | 0.00 | 0.00 | 100 | 950.7 |
| 20260507055643 | 60 | 234 | 2.0 | 10.0 | 0.00 | 0.00 | 0.00 | 100 | 950.7 |
| 20260507055541 | 60 | 238 | 2.0 | 9.0 | 0.00 | 0.00 | 0.00 | 100 | 950.6 |
| 20260507055338 | 59 | 251 | 3.0 | 16.0 | 0.00 | 0.00 | 0.00 | 100 | 950.6 |
| 20260507055134 | 59 | 255 | 3.0 | 16.0 | 0.00 | 0.00 | 0.00 | 100 | 950.6 |
| 20260507055033 | 59 | 262 | 2.0 | 16.0 | 0.00 | 0.00 | 0.00 | 100 | 950.6 |
| 20260507054931 | 59 | 243 | 2.0 | 15.0 | 0.00 | 0.00 | 0.00 | 100 | 950.6 |
| 20260507054715 | 59 | 237 | 2.0 | 15.0 | 0.00 | 0.00 | 0.00 | 100 | 950.5 |
| 20260507054511 | 59 | 235 | 2.0 | 10.0 | 0.00 | 0.00 | 0.00 | 100 | 950.4 |
| 20260507054410 | 59 | 238 | 2.0 | 10.0 | 0.00 | 0.00 | 0.00 | 100 | 950.5 |
| 20260507054307 | 59 | 229 | 2.0 | 10.0 | 0.00 | 0.00 | 0.00 | 100 | 950.4 |
| 20260507054104 | 59 | 216 | 2.0 | 10.0 | 0.00 | 0.00 | 0.00 | 100 | 950.4 |
| 20260507053902 | 59 | 212 | 2.0 | 10.0 | 0.00 | 0.00 | 0.00 | 100 | 950.4 |
| 20260507053801 | 59 | 218 | 2.0 | 10.0 | 0.00 | 0.00 | 0.00 | 100 | 950.3 |
| 20260507053655 | 59 | 223 | 2.0 | 11.0 | 0.00 | 0.00 | 0.00 | 100 | 950.3 |
| 20260507053452 | 59 | 218 | 2.0 | 12.0 | 0.00 | 0.00 | 0.00 | 100 | 950.4 |
| 20260507053249 | 59 | 221 | 3.0 | 12.0 | 0.00 | 0.00 | 0.00 | 100 | 950.3 |
| 20260507053148 | 59 | 216 | 2.0 | 10.0 | 0.00 | 0.00 | 0.00 | 100 | 950.4 |
| 20260507053046 | 59 | 214 | 2.0 | 10.0 | 0.00 | 0.00 | 0.00 | 100 | 950.4 |
| 20260507052843 | 59 | 199 | 3.0 | 10.0 | 0.00 | 0.00 | 0.00 | 100 | 950.3 |
| 20260507052640 | 59 | 213 | 2.0 | 10.0 | 0.00 | 0.00 | 0.00 | 100 | 950.3 |
| 20260507052539 | 59 | 216 | 2.0 | 10.0 | 0.00 | 0.00 | 0.00 | 100 | 950.5 |
| 20260507052437 | 59 | 212 | 2.0 | 10.0 | 0.00 | 0.00 | 0.00 | 100 | 950.5 |
| 20260507052234 | 59 | 217 | 2.0 | 10.0 | 0.00 | 0.00 | 0.00 | 100 | 950.4 |
| 20260507052031 | 59 | 230 | 2.0 | 14.0 | 0.00 | 0.00 | 0.00 | 100 | 950.4 |
| 20260507051931 | 59 | 224 | 2.0 | 14.0 | 0.00 | 0.00 | 0.00 | 100 | 950.5 |
| 20260507051828 | 59 | 231 | 2.0 | 14.0 | 0.00 | 0.00 | 0.00 | 100 | 950.5 |
| 20260507051624 | 59 | 225 | 2.0 | 13.0 | 0.00 | 0.00 | 0.00 | 100 | 950.3 |
| 20260507051421 | 59 | 221 | 2.0 | 11.0 | 0.00 | 0.00 | 0.00 | 100 | 950.4 |
| 20260507051321 | 59 | 221 | 3.0 | 11.0 | 0.00 | 0.00 | 0.00 | 100 | 950.4 |
| 20260507051219 | 59 | 215 | 3.0 | 11.0 | 0.00 | 0.00 | 0.00 | 100 | 950.3 |
| 20260507051016 | 59 | 217 | 2.0 | 11.0 | 0.00 | 0.00 | 0.00 | 100 | 950.3 |
| 20260507050813 | 59 | 218 | 2.0 | 8.0 | 0.00 | 0.00 | 0.00 | 100 | 950.3 |
| 20260507050712 | 59 | 231 | 2.0 | 9.0 | 0.00 | 0.00 | 0.00 | 100 | 950.1 |
| 20260507050610 | 59 | 231 | 2.0 | 9.0 | 0.00 | 0.00 | 0.00 | 100 | 950.2 |
| 20260507050406 | 59 | 229 | 2.0 | 8.0 | 0.00 | 0.00 | 0.00 | 100 | 950.2 |
| 20260507050203 | 58 | 219 | 2.0 | 12.0 | 0.00 | 0.00 | 0.00 | 100 | 950.1 |
| 20260507045959 | 58 | 222 | 2.0 | 12.0 | 0.00 | 0.00 | 0.00 | 100 | 950.1 |
| 20260507045756 | 58 | 234 | 2.0 | 8.0 | 0.00 | 0.00 | 0.00 | 100 | 950.2 |
| 20260507045553 | 58 | 0 | 2.0 | 8.0 | 0.00 | 0.00 | 0.00 | 100 | 950.3 |
| 20260507045452 | 58 | 0 | 2.0 | 8.0 | 0.00 | 0.00 | 0.00 | 100 | 950.1 |
| 20260507045349 | 58 | 0 | 2.0 | 9.0 | 0.00 | 0.00 | 0.00 | 100 | 950.2 |
| 20260507045146 | 58 | 0 | 2.0 | 9.0 | 0.00 | 0.00 | 0.00 | 100 | 950.1 |
| 20260507044943 | 58 | 0 | 2.0 | 9.0 | 0.00 | 0.00 | 0.00 | 100 | 950.1 |
| 20260507044842 | 58 | 0 | 2.0 | 9.0 | 0.00 | 0.00 | 0.00 | 100 | 950.0 |
| 20260507044740 | 58 | 0 | 2.0 | 11.0 | 0.00 | 0.00 | 0.00 | 100 | 950.1 |
| 20260507044537 | 58 | 238 | 2.0 | 11.0 | 0.00 | 0.00 | 0.00 | 100 | 950.2 |
| 20260507044341 | 58 | 243 | 2.0 | 8.0 | 0.00 | 0.00 | 0.00 | 100 | 950.2 |
| 20260507044233 | 58 | 0 | 2.0 | 7.0 | 0.00 | 0.00 | 0.00 | 100 | 950.3 |
| 20260507044131 | 58 | 226 | 2.0 | 8.0 | 0.00 | 0.00 | 0.00 | 100 | 950.3 |
| 20260507043932 | 58 | 222 | 2.0 | 8.0 | 0.00 | 0.00 | 0.00 | 100 | 950.2 |
| 20260507043725 | 58 | 228 | 2.0 | 10.0 | 0.00 | 0.00 | 0.00 | 100 | 950.2 |
| 20260507043624 | 58 | 236 | 2.0 | 10.0 | 0.00 | 0.00 | 0.00 | 100 | 950.3 |
| 20260507043518 | 58 | 237 | 2.0 | 10.0 | 0.00 | 0.00 | 0.00 | 100 | 950.2 |
| 20260507043315 | 58 | 233 | 2.0 | 8.0 | 0.00 | 0.00 | 0.00 | 100 | 950.2 |
| 20260507043112 | 58 | 221 | 2.0 | 8.0 | 0.00 | 0.00 | 0.00 | 100 | 950.3 |
| 20260507043011 | 58 | 228 | 2.0 | 6.0 | 0.00 | 0.00 | 0.00 | 100 | 950.2 |
| 20260507042909 | 58 | 0 | 2.0 | 6.0 | 0.00 | 0.00 | 0.00 | 100 | 950.3 |
| 20260507042706 | 58 | 234 | 2.0 | 9.0 | 0.00 | 0.00 | 0.00 | 100 | 950.2 |
| 20260507042503 | 58 | 238 | 2.0 | 10.0 | 0.00 | 0.00 | 0.00 | 100 | 950.3 |
| 20260507042402 | 58 | 248 | 2.0 | 10.0 | 0.00 | 0.00 | 0.00 | 100 | 950.2 |
| 20260507042300 | 58 | 248 | 2.0 | 10.0 | 0.00 | 0.00 | 0.00 | 100 | 950.1 |
| 20260507042057 | 58 | 240 | 2.0 | 9.0 | 0.00 | 0.00 | 0.00 | 100 | 950.1 |
| 20260507041853 | 58 | 237 | 2.0 | 8.0 | 0.00 | 0.00 | 0.00 | 100 | 950.1 |
| 20260507041752 | 58 | 226 | 2.0 | 8.0 | 0.00 | 0.00 | 0.00 | 100 | 950.1 |
| 20260507041650 | 57 | 230 | 2.0 | 7.0 | 0.00 | 0.00 | 0.00 | 100 | 950.1 |
| 20260507041447 | 57 | 0 | 2.0 | 8.0 | 0.00 | 0.00 | 0.00 | 100 | 950.0 |
| 20260507041244 | 57 | 0 | 2.0 | 8.0 | 0.00 | 0.00 | 0.00 | 100 | 950.0 |
| 20260507041143 | 57 | 0 | 2.0 | 8.0 | 0.00 | 0.00 | 0.00 | 100 | 950.1 |
| 20260507041040 | 57 | 0 | 2.0 | 7.0 | 0.00 | 0.00 | 0.00 | 100 | 950.1 |
| 20260507040837 | 57 | 0 | 2.0 | 7.0 | 0.00 | 0.00 | 0.00 | 100 | 950.0 |
| 20260507040634 | 57 | 232 | 2.0 | 7.0 | 0.00 | 0.00 | 0.00 | 100 | 950.0 |
| 20260507040533 | 57 | 235 | 2.0 | 7.0 | 0.00 | 0.00 | 0.00 | 100 | 950.0 |
| 20260507040431 | 57 | 235 | 2.0 | 8.0 | 0.00 | 0.00 | 0.00 | 100 | 950.0 |
| 20260507040227 | 57 | 225 | 2.0 | 8.0 | 0.00 | 0.00 | 0.00 | 100 | 949.9 |
| 20260507040025 | 57 | 213 | 2.0 | 10.0 | 0.00 | 0.00 | 0.00 | 100 | 949.9 |
| 20260507035924 | 57 | 215 | 2.0 | 10.0 | 0.00 | 0.00 | 0.00 | 100 | 949.9 |
| 20260507035825 | 57 | 217 | 2.0 | 10.0 | 0.00 | 0.00 | 0.00 | 100 | 949.9 |
| 20260507035618 | 57 | 221 | 2.0 | 16.0 | 0.00 | 0.00 | 0.00 | 100 | 949.7 |
| 20260507035415 | 57 | 238 | 3.0 | 16.0 | 0.00 | 0.00 | 0.00 | 100 | 949.7 |
| 20260507035315 | 57 | 243 | 3.0 | 16.0 | 0.00 | 0.00 | 0.00 | 100 | 949.6 |
| 20260507035212 | 57 | 245 | 3.0 | 14.0 | 0.00 | 0.00 | 0.00 | 100 | 949.8 |
| 20260507035009 | 57 | 242 | 2.0 | 12.0 | 0.00 | 0.00 | 0.00 | 100 | 949.7 |
| 20260507034806 | 57 | 225 | 1.0 | 7.0 | 0.00 | 0.00 | 0.00 | 100 | 949.7 |
| 20260507034705 | 57 | 0 | 1.0 | 5.0 | 0.00 | 0.00 | 0.00 | 100 | 949.7 |
| 20260507034603 | 57 | 0 | 1.0 | 6.0 | 0.00 | 0.00 | 0.00 | 100 | 949.7 |
| 20260507034359 | 57 | 0 | 2.0 | 11.0 | 0.00 | 0.00 | 0.00 | 100 | 949.6 |
| 20260507034156 | 57 | 226 | 2.0 | 11.0 | 0.00 | 0.00 | 0.00 | 100 | 949.4 |
| 20260507034055 | 57 | 226 | 2.0 | 11.0 | 0.00 | 0.00 | 0.00 | 100 | 949.3 |
| 20260507033952 | 57 | 221 | 2.0 | 10.0 | 0.00 | 0.00 | 0.00 | 100 | 949.4 |
| 20260507033750 | 57 | 215 | 2.0 | 11.0 | 0.00 | 0.00 | 0.00 | 100 | 949.2 |
| 20260507033547 | 57 | 216 | 2.0 | 9.0 | 0.00 | 0.00 | 0.00 | 100 | 949.4 |
| 20260507033446 | 57 | 0 | 2.0 | 7.0 | 0.00 | 0.00 | 0.00 | 100 | 949.2 |
| 20260507033343 | 57 | 0 | 2.0 | 13.0 | 0.00 | 0.00 | 0.00 | 100 | 949.3 |
| 20260507033136 | 57 | 220 | 2.0 | 13.0 | 0.00 | 0.00 | 0.00 | 100 | 949.2 |
| 20260507032933 | 57 | 217 | 3.0 | 14.0 | 0.00 | 0.00 | 0.00 | 100 | 949.2 |
| 20260507032833 | 57 | 209 | 3.0 | 14.0 | 0.00 | 0.00 | 0.00 | 100 | 949.1 |
| 20260507032730 | 57 | 201 | 3.0 | 14.0 | 0.00 | 0.00 | 0.00 | 100 | 949.2 |
| 20260507032527 | 57 | 192 | 4.0 | 15.0 | 0.00 | 0.00 | 0.00 | 100 | 949.2 |
| 20260507032324 | 57 | 196 | 2.0 | 15.0 | 0.00 | 0.00 | 0.00 | 100 | 949.3 |
| 20260507032223 | 57 | 212 | 2.0 | 8.0 | 0.00 | 0.00 | 0.00 | 100 | 949.4 |
| 20260507032121 | 57 | 208 | 2.0 | 8.0 | 0.00 | 0.00 | 0.00 | 100 | 949.4 |
| 20260507031927 | 57 | 207 | 2.0 | 6.0 | 0.00 | 0.00 | 0.00 | 100 | 949.4 |
| 20260507031719 | 57 | 206 | 1.0 | 5.0 | 0.00 | 0.00 | 0.00 | 100 | 949.5 |
| 20260507031615 | 57 | 208 | 2.0 | 8.0 | 0.00 | 0.00 | 0.00 | 100 | 949.4 |
| 20260507031513 | 57 | 211 | 2.0 | 8.0 | 0.00 | 0.00 | 0.00 | 100 | 949.4 |
| 20260507031309 | 57 | 209 | 2.0 | 8.0 | 0.00 | 0.00 | 0.00 | 100 | 949.5 |
| 20260507031106 | 57 | 210 | 2.0 | 10.0 | 0.00 | 0.00 | 0.00 | 100 | 949.5 |
| 20260507031005 | 57 | 213 | 2.0 | 10.0 | 0.00 | 0.00 | 0.00 | 100 | 949.5 |
| 20260507030917 | 57 | 216 | 2.0 | 10.0 | 0.00 | 0.00 | 0.00 | 100 | 949.5 |
| 20260507030649 | 57 | 223 | 2.0 | 8.0 | 0.00 | 0.00 | 0.00 | 100 | 949.4 |
| 20260507030445 | 57 | 222 | 2.0 | 8.0 | 0.00 | 0.00 | 0.00 | 100 | 949.5 |
| 20260507030345 | 57 | 221 | 2.0 | 7.0 | 0.00 | 0.00 | 0.00 | 100 | 949.5 |
| 20260507030242 | 57 | 226 | 2.0 | 7.0 | 0.00 | 0.00 | 0.00 | 100 | 949.5 |
| 20260507030043 | 57 | 0 | 1.0 | 7.0 | 0.00 | 0.00 | 0.00 | 100 | 949.5 |
| 20260507025836 | 57 | 195 | 2.0 | 8.0 | 0.00 | 0.00 | 0.00 | 100 | 949.5 |
| 20260507025735 | 57 | 202 | 2.0 | 13.0 | 0.00 | 0.00 | 0.00 | 100 | 949.5 |
| 20260507025632 | 57 | 207 | 2.0 | 13.0 | 0.00 | 0.00 | 0.00 | 100 | 949.6 |
| 20260507025429 | 57 | 204 | 2.0 | 13.0 | 0.00 | 0.00 | 0.00 | 100 | 949.5 |
| 20260507025226 | 57 | 232 | 1.0 | 5.0 | 0.00 | 0.00 | 0.00 | 100 | 949.5 |
| 20260507025125 | 57 | 0 | 1.0 | 6.0 | 0.00 | 0.00 | 0.00 | 100 | 949.5 |
| 20260507025023 | 57 | 0 | 2.0 | 6.0 | 0.00 | 0.00 | 0.00 | 100 | 949.6 |
| 20260507024820 | 57 | 211 | 2.0 | 10.0 | 0.00 | 0.00 | 0.00 | 100 | 949.6 |
| 20260507024618 | 57 | 210 | 3.0 | 12.0 | 0.00 | 0.00 | 0.00 | 100 | 949.6 |
| 20260507024517 | 57 | 209 | 3.0 | 13.0 | 0.00 | 0.00 | 0.00 | 100 | 949.6 |
| 20260507024415 | 57 | 206 | 2.0 | 13.0 | 0.00 | 0.00 | 0.00 | 100 | 949.5 |
| 20260507024212 | 57 | 203 | 2.0 | 9.0 | 0.00 | 0.00 | 0.00 | 100 | 949.6 |
| 20260507024009 | 57 | 199 | 2.0 | 9.0 | 0.00 | 0.00 | 0.00 | 100 | 949.6 |
| 20260507023908 | 57 | 204 | 2.0 | 7.0 | 0.00 | 0.00 | 0.00 | 100 | 949.5 |
| 20260507023806 | 57 | 200 | 2.0 | 7.0 | 0.00 | 0.00 | 0.00 | 100 | 949.6 |
| 20260507023602 | 57 | 201 | 2.0 | 6.0 | 0.00 | 0.00 | 0.00 | 100 | 949.5 |
| 20260507023359 | 57 | 200 | 2.0 | 6.0 | 0.00 | 0.00 | 0.00 | 100 | 949.6 |
| 20260507023303 | 57 | 195 | 2.0 | 8.0 | 0.00 | 0.00 | 0.00 | 100 | 949.6 |
| 20260507023154 | 57 | 199 | 2.0 | 8.0 | 0.00 | 0.00 | 0.00 | 100 | 949.6 |
| 20260507022954 | 58 | 223 | 2.0 | 8.0 | 0.00 | 0.00 | 0.00 | 100 | 949.6 |
| 20260507022748 | 58 | 207 | 3.0 | 14.0 | 0.00 | 0.00 | 0.00 | 100 | 949.7 |
| 20260507022647 | 58 | 197 | 3.0 | 14.0 | 0.00 | 0.00 | 0.00 | 100 | 949.6 |
| 20260507022545 | 58 | 191 | 3.0 | 14.0 | 0.00 | 0.00 | 0.00 | 100 | 949.5 |
| 20260507022341 | 58 | 236 | 2.0 | 7.0 | 0.00 | 0.00 | 0.00 | 100 | 949.6 |
| 20260507022138 | 58 | 213 | 3.0 | 12.0 | 0.00 | 0.00 | 0.00 | 100 | 949.6 |
| 20260507022037 | 58 | 208 | 3.0 | 12.0 | 0.00 | 0.00 | 0.00 | 100 | 949.7 |
| 20260507021935 | 58 | 195 | 3.0 | 12.0 | 0.00 | 0.00 | 0.00 | 100 | 949.4 |
| 20260507021732 | 58 | 191 | 2.0 | 12.0 | 0.00 | 0.00 | 0.00 | 100 | 949.6 |
| 20260507021528 | 58 | 180 | 3.0 | 12.0 | 0.00 | 0.00 | 0.00 | 100 | 949.6 |
| 20260507021427 | 58 | 181 | 3.0 | 12.0 | 0.00 | 0.00 | 0.00 | 100 | 949.5 |
| 20260507021325 | 58 | 182 | 3.0 | 12.0 | 0.00 | 0.00 | 0.00 | 100 | 949.5 |
| 20260507021122 | 58 | 187 | 2.0 | 9.0 | 0.00 | 0.00 | 0.00 | 100 | 949.6 |
| 20260507020918 | 58 | 0 | 2.0 | 6.0 | 0.00 | 0.00 | 0.00 | 100 | 949.6 |
| 20260507020817 | 58 | 239 | 2.0 | 8.0 | 0.00 | 0.00 | 0.00 | 100 | 949.7 |
| 20260507020715 | 58 | 235 | 2.0 | 8.0 | 0.00 | 0.00 | 0.00 | 100 | 949.6 |
| 20260507020512 | 58 | 214 | 2.0 | 8.0 | 0.00 | 0.00 | 0.00 | 100 | 949.6 |
| 20260507020308 | 58 | 219 | 2.0 | 12.0 | 0.00 | 0.00 | 0.00 | 100 | 949.6 |
| 20260507020207 | 58 | 197 | 3.0 | 12.0 | 0.00 | 0.00 | 0.00 | 100 | 949.6 |
| 20260507020105 | 58 | 201 | 4.0 | 12.0 | 0.00 | 0.00 | 0.00 | 100 | 949.4 |
| 20260507015902 | 58 | 192 | 4.0 | 12.0 | 0.00 | 0.00 | 0.00 | 100 | 949.5 |
| 20260507015659 | 58 | 182 | 4.0 | 17.0 | 0.00 | 0.00 | 0.00 | 100 | 949.3 |
| 20260507015558 | 58 | 182 | 4.0 | 17.0 | 0.00 | 0.00 | 0.00 | 100 | 949.5 |
| 20260507015456 | 58 | 184 | 5.0 | 17.0 | 0.00 | 0.00 | 0.00 | 100 | 949.2 |
| 20260507015252 | 58 | 204 | 3.0 | 13.0 | 0.00 | 0.00 | 0.00 | 100 | 949.3 |
| 20260507015049 | 58 | 206 | 3.0 | 12.0 | 0.00 | 0.00 | 0.00 | 100 | 949.6 |
| 20260507014949 | 58 | 196 | 4.0 | 13.0 | 0.00 | 0.00 | 0.00 | 100 | 949.7 |
| 20260507014847 | 58 | 190 | 4.0 | 13.0 | 0.00 | 0.00 | 0.00 | 100 | 949.7 |
| 20260507014643 | 58 | 184 | 5.0 | 20.0 | 0.00 | 0.00 | 0.00 | 100 | 949.6 |
| 20260507014439 | 58 | 181 | 4.0 | 20.0 | 0.00 | 0.00 | 0.00 | 100 | 949.5 |
| 20260507014338 | 58 | 176 | 4.0 | 20.0 | 0.00 | 0.00 | 0.00 | 100 | 949.5 |
| 20260507014236 | 58 | 185 | 3.0 | 13.0 | 0.00 | 0.00 | 0.00 | 100 | 949.6 |
| 20260507014036 | 58 | 199 | 4.0 | 13.0 | 0.00 | 0.00 | 0.00 | 100 | 949.7 |
| 20260507013829 | 58 | 210 | 3.0 | 13.0 | 0.00 | 0.00 | 0.00 | 100 | 949.7 |
| 20260507013728 | 58 | 194 | 2.0 | 9.0 | 0.00 | 0.00 | 0.00 | 100 | 949.7 |
| 20260507013625 | 58 | 191 | 3.0 | 8.0 | 0.00 | 0.00 | 0.00 | 100 | 949.7 |
| 20260507013422 | 58 | 194 | 2.0 | 8.0 | 0.00 | 0.00 | 0.00 | 100 | 949.8 |
| 20260507013219 | 58 | 209 | 2.0 | 13.0 | 0.00 | 0.00 | 0.00 | 100 | 949.9 |
| 20260507013118 | 58 | 217 | 2.0 | 13.0 | 0.00 | 0.00 | 0.00 | 100 | 949.8 |
| 20260507013013 | 58 | 211 | 2.0 | 13.0 | 0.00 | 0.00 | 0.00 | 100 | 949.8 |
| 20260507012810 | 58 | 219 | 1.0 | 10.0 | 0.00 | 0.00 | 0.00 | 100 | 950.0 |
| 20260507012607 | 58 | 0 | 1.0 | 6.0 | 0.00 | 0.00 | 0.00 | 100 | 949.9 |
| 20260507012506 | 58 | 0 | 1.0 | 6.0 | 0.00 | 0.00 | 0.00 | 100 | 949.8 |
| 20260507012404 | 58 | 209 | 2.0 | 10.0 | 0.00 | 0.00 | 0.00 | 100 | 949.9 |
| 20260507012201 | 58 | 200 | 2.0 | 10.0 | 0.00 | 0.00 | 0.00 | 100 | 949.8 |
| 20260507011958 | 59 | 182 | 2.0 | 16.0 | 0.00 | 0.00 | 0.00 | 100 | 949.7 |
| 20260507011857 | 59 | 176 | 3.0 | 16.0 | 0.00 | 0.00 | 0.00 | 100 | 949.7 |
| 20260507011755 | 59 | 176 | 4.0 | 16.0 | 0.00 | 0.00 | 0.00 | 100 | 949.6 |
| 20260507011552 | 59 | 180 | 3.0 | 12.0 | 0.00 | 0.00 | 0.00 | 100 | 949.5 |
| 20260507011349 | 59 | 200 | 3.0 | 14.0 | 0.00 | 0.00 | 0.00 | 100 | 949.6 |
| 20260507011253 | 59 | 193 | 3.0 | 14.0 | 0.00 | 0.00 | 0.00 | 100 | 949.4 |
| 20260507011146 | 59 | 194 | 4.0 | 14.0 | 0.00 | 0.00 | 0.00 | 100 | 949.4 |
| 20260507010943 | 59 | 176 | 5.0 | 17.0 | 0.00 | 0.00 | 0.00 | 100 | 949.4 |
| 20260507010739 | 59 | 172 | 5.0 | 17.0 | 0.00 | 0.00 | 0.00 | 100 | 949.2 |
| 20260507010639 | 59 | 177 | 4.0 | 16.0 | 0.00 | 0.00 | 0.00 | 100 | 949.4 |
| 20260507010536 | 59 | 181 | 3.0 | 16.0 | 0.00 | 0.00 | 0.00 | 100 | 949.4 |
| 20260507010333 | 59 | 180 | 2.0 | 11.0 | 0.00 | 0.00 | 0.00 | 100 | 949.5 |
| 20260507010130 | 59 | 175 | 3.0 | 11.0 | 0.00 | 0.00 | 0.00 | 100 | 949.5 |
| 20260507010029 | 59 | 174 | 3.0 | 11.0 | 0.00 | 0.00 | 0.00 | 100 | 949.5 |
| 20260507005927 | 59 | 177 | 2.0 | 7.0 | 0.00 | 0.00 | 0.00 | 100 | 949.6 |
| 20260507005724 | 59 | 199 | 2.0 | 6.0 | 0.00 | 0.00 | 0.00 | 100 | 949.4 |
| 20260507005520 | 59 | 200 | 2.0 | 11.0 | 0.00 | 0.00 | 0.00 | 100 | 949.5 |
| 20260507005420 | 59 | 201 | 2.0 | 11.0 | 0.00 | 0.00 | 0.00 | 100 | 949.3 |
| 20260507005317 | 59 | 212 | 2.0 | 11.0 | 0.00 | 0.00 | 0.00 | 100 | 949.3 |
| 20260507005114 | 59 | 215 | 2.0 | 9.0 | 0.00 | 0.00 | 0.00 | 100 | 949.3 |
| 20260507004910 | 59 | 197 | 2.0 | 7.0 | 0.00 | 0.00 | 0.00 | 100 | 949.5 |
| 20260507004810 | 59 | 173 | 2.0 | 7.0 | 0.00 | 0.00 | 0.00 | 100 | 949.5 |
| 20260507004708 | 59 | 176 | 3.0 | 7.0 | 0.00 | 0.00 | 0.00 | 100 | 949.4 |
| 20260507004505 | 59 | 197 | 3.0 | 12.0 | 0.00 | 0.00 | 0.00 | 100 | 949.2 |
| 20260507004302 | 59 | 216 | 3.0 | 12.0 | 0.00 | 0.00 | 0.00 | 100 | 949.3 |
| 20260507004202 | 59 | 214 | 3.0 | 12.0 | 0.00 | 0.00 | 0.00 | 100 | 949.2 |
| 20260507004059 | 59 | 201 | 2.0 | 10.0 | 0.00 | 0.00 | 0.00 | 100 | 949.4 |
| 20260507003856 | 59 | 211 | 2.0 | 10.0 | 0.00 | 0.00 | 0.00 | 100 | 949.3 |
| 20260507003653 | 59 | 205 | 2.0 | 10.0 | 0.00 | 0.00 | 0.00 | 100 | 949.2 |
| 20260507003552 | 59 | 206 | 2.0 | 9.0 | 0.00 | 0.00 | 0.00 | 100 | 949.2 |
| 20260507003450 | 59 | 197 | 2.0 | 10.0 | 0.00 | 0.00 | 0.00 | 100 | 949.2 |
| 20260507003247 | 59 | 204 | 2.0 | 10.0 | 0.00 | 0.00 | 0.00 | 100 | 949.2 |
| 20260507003044 | 59 | 184 | 2.0 | 10.0 | 0.00 | 0.00 | 0.00 | 100 | 949.1 |
| 20260507002943 | 59 | 184 | 3.0 | 9.0 | 0.00 | 0.00 | 0.00 | 100 | 949.1 |
| 20260507002825 | 59 | 189 | 3.0 | 9.0 | 0.00 | 0.00 | 0.00 | 100 | 949.2 |
| 20260507002622 | 59 | 185 | 2.0 | 9.0 | 0.00 | 0.00 | 0.00 | 100 | 949.1 |
| 20260507002418 | 60 | 194 | 1.0 | 7.0 | 0.00 | 0.00 | 0.00 | 100 | 949.2 |
| 20260507002318 | 60 | 212 | 1.0 | 6.0 | 0.00 | 0.00 | 0.00 | 100 | 949.3 |
| 20260507002219 | 60 | 208 | 2.0 | 6.0 | 0.00 | 0.00 | 0.00 | 100 | 949.2 |
| 20260507002012 | 60 | 177 | 3.0 | 12.0 | 0.00 | 0.00 | 0.00 | 100 | 949.3 |
| 20260507001809 | 60 | 182 | 3.0 | 12.0 | 0.00 | 0.00 | 0.00 | 100 | 949.1 |
| 20260507001709 | 60 | 197 | 2.0 | 12.0 | 0.00 | 0.00 | 0.00 | 100 | 949.1 |
| 20260507001606 | 60 | 248 | 2.0 | 12.0 | 0.00 | 0.00 | 0.00 | 100 | 949.1 |
| 20260507001403 | 60 | 222 | 2.0 | 10.0 | 0.00 | 0.00 | 0.00 | 100 | 949.2 |
| 20260507001201 | 60 | 209 | 2.0 | 10.0 | 0.00 | 0.00 | 0.00 | 100 | 949.1 |
| 20260507001101 | 60 | 208 | 2.0 | 11.0 | 0.00 | 0.00 | 0.00 | 100 | 949.1 |
| 20260507000958 | 60 | 207 | 2.0 | 11.0 | 0.00 | 0.00 | 0.00 | 100 | 949.1 |
| 20260507000756 | 60 | 217 | 3.0 | 13.0 | 0.00 | 0.00 | 0.00 | 100 | 949.0 |
| 20260507000552 | 60 | 192 | 4.0 | 14.0 | 0.00 | 0.00 | 0.00 | 100 | 949.1 |
| 20260507000451 | 60 | 182 | 5.0 | 15.0 | 0.00 | 0.00 | 0.00 | 100 | 949.0 |
| 20260507000350 | 60 | 180 | 5.0 | 15.0 | 0.00 | 0.00 | 0.00 | 100 | 949.0 |
| 20260507000146 | 60 | 194 | 2.0 | 15.0 | 0.00 | 0.00 | 0.00 | 100 | 948.9 |
| 20260506235943 | 60 | 190 | 3.0 | 14.0 | 0.00 | 0.00 | 0.00 | 100 | 948.9 |
| 20260506235842 | 60 | 185 | 4.0 | 20.0 | 0.00 | 0.00 | 0.00 | 100 | 948.8 |
| 20260506235740 | 60 | 179 | 6.0 | 20.0 | 0.00 | 0.00 | 0.00 | 100 | 948.8 |
| 20260506235538 | 60 | 173 | 8.0 | 24.0 | 0.00 | 0.00 | 0.00 | 100 | 948.7 |
| 20260506235334 | 60 | 170 | 6.0 | 24.0 | 0.00 | 0.00 | 0.00 | 100 | 948.7 |
| 20260506235234 | 60 | 174 | 5.0 | 14.0 | 0.00 | 0.00 | 0.00 | 100 | 948.8 |
| 20260506235132 | 60 | 176 | 3.0 | 14.0 | 0.00 | 0.00 | 0.00 | 100 | 948.9 |
| 20260506234928 | 60 | 182 | 4.0 | 16.0 | 0.00 | 0.00 | 0.00 | 100 | 948.9 |
| 20260506234725 | 60 | 185 | 4.0 | 16.0 | 0.00 | 0.00 | 0.00 | 100 | 948.9 |
| 20260506234624 | 60 | 184 | 4.0 | 16.0 | 0.00 | 0.00 | 0.00 | 100 | 948.9 |
| 20260506234525 | 60 | 183 | 3.0 | 11.0 | 0.00 | 0.00 | 0.00 | 100 | 949.0 |
| 20260506234318 | 60 | 198 | 3.0 | 11.0 | 0.00 | 0.00 | 0.00 | 100 | 948.9 |
| 20260506234115 | 60 | 210 | 3.0 | 11.0 | 0.00 | 0.00 | 0.00 | 100 | 949.0 |
| 20260506234015 | 61 | 216 | 3.0 | 11.0 | 0.00 | 0.00 | 0.00 | 100 | 948.9 |
| 20260506233913 | 60 | 217 | 3.0 | 11.0 | 0.00 | 0.00 | 0.00 | 100 | 949.0 |
| 20260506233709 | 60 | 215 | 2.0 | 10.0 | 0.00 | 0.00 | 0.00 | 100 | 949.1 |
| 20260506233506 | 60 | 206 | 2.0 | 10.0 | 0.00 | 0.00 | 0.00 | 100 | 949.1 |
| 20260506233405 | 60 | 206 | 2.0 | 9.0 | 0.00 | 0.00 | 0.00 | 100 | 949.1 |
| 20260506233302 | 60 | 201 | 2.0 | 7.0 | 0.00 | 0.00 | 0.00 | 100 | 949.0 |
| 20260506233059 | 60 | 193 | 2.0 | 10.0 | 0.00 | 0.00 | 0.00 | 100 | 949.1 |
| 20260506232856 | 60 | 200 | 2.0 | 10.0 | 0.00 | 0.00 | 0.00 | 100 | 948.9 |
| 20260506232755 | 60 | 198 | 2.0 | 10.0 | 0.00 | 0.00 | 0.00 | 100 | 949.1 |
| 20260506232649 | 60 | 213 | 2.0 | 6.0 | 0.00 | 0.00 | 0.00 | 100 | 949.0 |
| 20260506232454 | 60 | 221 | 2.0 | 8.0 | 0.00 | 0.00 | 0.00 | 100 | 949.0 |
| 20260506232243 | 61 | 214 | 2.0 | 12.0 | 0.00 | 0.00 | 0.00 | 100 | 949.0 |
| 20260506232142 | 61 | 212 | 2.0 | 12.0 | 0.00 | 0.00 | 0.00 | 100 | 949.0 |
| 20260506232040 | 61 | 214 | 2.0 | 12.0 | 0.00 | 0.00 | 0.00 | 100 | 949.0 |
| 20260506231836 | 61 | 216 | 2.0 | 12.0 | 0.00 | 0.00 | 0.00 | 100 | 948.9 |
| 20260506231633 | 61 | 220 | 2.0 | 12.0 | 0.00 | 0.00 | 0.00 | 100 | 948.9 |
| 20260506231532 | 61 | 226 | 2.0 | 14.0 | 0.00 | 0.00 | 0.00 | 100 | 948.9 |
| 20260506231429 | 61 | 240 | 2.0 | 14.0 | 0.00 | 0.00 | 0.00 | 100 | 948.8 |
| 20260506231226 | 61 | 222 | 3.0 | 14.0 | 0.00 | 0.00 | 0.00 | 100 | 948.8 |
| 20260506231024 | 61 | 219 | 3.0 | 10.0 | 0.00 | 0.00 | 0.00 | 100 | 948.8 |
| 20260506230923 | 61 | 219 | 3.0 | 11.0 | 0.00 | 0.00 | 0.00 | 100 | 948.8 |
| 20260506230826 | 61 | 208 | 3.0 | 12.0 | 0.00 | 0.00 | 0.00 | 100 | 948.9 |
| 20260506230617 | 61 | 209 | 3.0 | 12.0 | 0.00 | 0.00 | 0.00 | 100 | 948.8 |
| 20260506230414 | 61 | 234 | 2.0 | 13.0 | 0.00 | 0.00 | 0.00 | 100 | 948.8 |
| 20260506230313 | 61 | 230 | 2.0 | 13.0 | 0.00 | 0.00 | 0.00 | 100 | 948.7 |
| 20260506230211 | 61 | 218 | 2.0 | 13.0 | 0.00 | 0.00 | 0.00 | 100 | 948.7 |
| 20260506230007 | 61 | 216 | 2.0 | 13.0 | 0.00 | 0.00 | 0.00 | 100 | 948.8 |
| 20260506225804 | 61 | 193 | 3.0 | 18.0 | 0.00 | 0.00 | 0.00 | 100 | 948.9 |
| 20260506225703 | 61 | 198 | 4.0 | 18.0 | 0.00 | 0.00 | 0.00 | 100 | 948.9 |
| 20260506225601 | 61 | 194 | 4.0 | 18.0 | 0.00 | 0.00 | 0.00 | 100 | 948.7 |
| 20260506225358 | 61 | 207 | 3.0 | 13.0 | 0.00 | 0.00 | 0.00 | 100 | 949.0 |
| 20260506225156 | 61 | 197 | 3.0 | 16.0 | 0.00 | 0.00 | 0.00 | 100 | 949.0 |
| 20260506225055 | 61 | 194 | 4.0 | 16.0 | 0.00 | 0.00 | 0.00 | 100 | 948.9 |
| 20260506224952 | 62 | 195 | 4.0 | 16.0 | 0.00 | 0.00 | 0.00 | 100 | 948.9 |
| 20260506224749 | 62 | 192 | 4.0 | 20.0 | 0.00 | 0.00 | 0.00 | 100 | 949.0 |
| 20260506224546 | 62 | 187 | 4.0 | 20.0 | 0.00 | 0.00 | 0.00 | 100 | 949.0 |
| 20260506224445 | 62 | 186 | 4.0 | 20.0 | 0.00 | 0.00 | 0.00 | 100 | 948.9 |
| 20260506224342 | 62 | 192 | 4.0 | 24.0 | 0.00 | 0.00 | 0.00 | 100 | 948.8 |
| 20260506224139 | 62 | 191 | 4.0 | 24.0 | 0.00 | 0.00 | 0.00 | 100 | 949.0 |
| 20260506223935 | 62 | 189 | 4.0 | 17.0 | 0.00 | 0.00 | 0.00 | 100 | 948.8 |
| 20260506223835 | 62 | 190 | 4.0 | 17.0 | 0.00 | 0.00 | 0.00 | 100 | 948.9 |
| 20260506223732 | 62 | 195 | 4.0 | 16.0 | 0.00 | 0.00 | 0.00 | 100 | 948.8 |
| 20260506223529 | 62 | 213 | 3.0 | 16.0 | 0.00 | 0.00 | 0.00 | 100 | 948.9 |
| 20260506223326 | 62 | 209 | 4.0 | 16.0 | 0.00 | 0.00 | 0.00 | 100 | 948.8 |
| 20260506223225 | 62 | 202 | 4.0 | 17.0 | 0.00 | 0.00 | 0.00 | 100 | 948.8 |
| 20260506223123 | 62 | 204 | 4.0 | 17.0 | 0.00 | 0.00 | 0.00 | 100 | 948.9 |
| 20260506222920 | 62 | 203 | 4.0 | 20.0 | 0.00 | 0.00 | 0.00 | 100 | 948.8 |
| 20260506222717 | 62 | 196 | 4.0 | 20.0 | 0.00 | 0.00 | 0.00 | 100 | 948.9 |
| 20260506222616 | 62 | 195 | 4.0 | 20.0 | 0.00 | 0.00 | 0.00 | 100 | 948.8 |
| 20260506222511 | 62 | 205 | 4.0 | 11.0 | 0.00 | 0.00 | 0.00 | 100 | 948.9 |
| 20260506222308 | 62 | 203 | 3.0 | 13.0 | 0.00 | 0.00 | 0.00 | 100 | 948.9 |
| 20260506222105 | 62 | 198 | 4.0 | 23.0 | 0.00 | 0.00 | 0.00 | 100 | 948.8 |
| 20260506222005 | 62 | 193 | 5.0 | 23.0 | 0.00 | 0.00 | 0.00 | 100 | 948.8 |
| 20260506221903 | 62 | 197 | 5.0 | 23.0 | 0.00 | 0.00 | 0.00 | 100 | 948.5 |
| 20260506221700 | 62 | 199 | 4.0 | 16.0 | 0.00 | 0.00 | 0.00 | 100 | 948.8 |
| 20260506221456 | 62 | 206 | 3.0 | 12.0 | 0.00 | 0.00 | 0.00 | 100 | 948.7 |
| 20260506221355 | 62 | 211 | 3.0 | 11.0 | 0.00 | 0.00 | 0.00 | 100 | 948.8 |
| 20260506221253 | 62 | 207 | 4.0 | 18.0 | 0.00 | 0.00 | 0.00 | 100 | 948.7 |
| 20260506221049 | 62 | 194 | 4.0 | 18.0 | 0.00 | 0.00 | 0.00 | 100 | 948.7 |
| 20260506220846 | 62 | 213 | 3.0 | 14.0 | 0.00 | 0.00 | 0.00 | 100 | 948.6 |
| 20260506220745 | 62 | 226 | 3.0 | 9.0 | 0.00 | 0.00 | 0.00 | 100 | 948.8 |
| 20260506220643 | 62 | 222 | 3.0 | 11.0 | 0.00 | 0.00 | 0.00 | 100 | 948.8 |
| 20260506220441 | 62 | 209 | 4.0 | 13.0 | 0.00 | 0.00 | 0.00 | 100 | 948.8 |
| 20260506220238 | 62 | 203 | 4.0 | 19.0 | 0.00 | 0.00 | 0.00 | 100 | 948.9 |
| 20260506220137 | 62 | 205 | 4.0 | 19.0 | 0.00 | 0.00 | 0.00 | 100 | 949.0 |
| 20260506220034 | 62 | 207 | 3.0 | 19.0 | 0.00 | 0.00 | 0.00 | 100 | 948.8 |
| 20260506215831 | 62 | 210 | 3.0 | 10.0 | 0.00 | 0.00 | 0.00 | 100 | 948.7 |
| 20260506215628 | 62 | 204 | 3.0 | 12.0 | 0.00 | 0.00 | 0.00 | 100 | 948.7 |
| 20260506215527 | 62 | 206 | 3.0 | 12.0 | 0.00 | 0.00 | 0.00 | 100 | 948.8 |
| 20260506215425 | 62 | 214 | 3.0 | 12.0 | 0.00 | 0.00 | 0.00 | 100 | 948.8 |
| 20260506215222 | 62 | 218 | 3.0 | 10.0 | 0.00 | 0.00 | 0.00 | 100 | 948.8 |
| 20260506215019 | 62 | 208 | 3.0 | 12.0 | 0.00 | 0.00 | 0.00 | 100 | 948.8 |
| 20260506214904 | 62 | 190 | 3.0 | 14.0 | 0.00 | 0.00 | 0.00 | 100 | 948.7 |
| 20260506214802 | 62 | 190 | 4.0 | 14.0 | 0.00 | 0.00 | 0.00 | 100 | 948.7 |
| 20260506214559 | 62 | 193 | 4.0 | 14.0 | 0.00 | 0.00 | 0.00 | 100 | 948.7 |
| 20260506214356 | 63 | 194 | 4.0 | 14.0 | 0.00 | 0.00 | 0.00 | 100 | 948.5 |
| 20260506214255 | 63 | 191 | 3.0 | 14.0 | 0.00 | 0.00 | 0.00 | 100 | 948.8 |
| 20260506214153 | 62 | 194 | 4.0 | 14.0 | 0.00 | 0.00 | 0.00 | 100 | 948.7 |
| 20260506213949 | 62 | 199 | 3.0 | 13.0 | 0.00 | 0.00 | 0.00 | 100 | 948.7 |
| 20260506213746 | 63 | 199 | 3.0 | 12.0 | 0.00 | 0.00 | 0.00 | 100 | 948.6 |
| 20260506213645 | 63 | 199 | 3.0 | 12.0 | 0.00 | 0.00 | 0.00 | 100 | 948.8 |
| 20260506213543 | 63 | 210 | 3.0 | 16.0 | 0.00 | 0.00 | 0.00 | 100 | 948.7 |
| 20260506213340 | 63 | 189 | 3.0 | 16.0 | 0.00 | 0.00 | 0.00 | 100 | 948.6 |
| 20260506213136 | 63 | 204 | 3.0 | 10.0 | 0.00 | 0.00 | 0.00 | 100 | 948.6 |
| 20260506213035 | 63 | 230 | 2.0 | 10.0 | 0.00 | 0.00 | 0.00 | 100 | 948.6 |
| 20260506212933 | 63 | 241 | 2.0 | 10.0 | 0.00 | 0.00 | 0.00 | 100 | 948.7 |
| 20260506212730 | 63 | 219 | 3.0 | 17.0 | 0.00 | 0.00 | 0.00 | 100 | 948.7 |
| 20260506212526 | 63 | 198 | 3.0 | 19.0 | 0.00 | 0.00 | 0.00 | 100 | 948.6 |
| 20260506212425 | 63 | 203 | 4.0 | 19.0 | 0.00 | 0.00 | 0.00 | 100 | 948.7 |
| 20260506212320 | 63 | 202 | 4.0 | 19.0 | 0.00 | 0.00 | 0.00 | 100 | 948.6 |
| 20260506212116 | 63 | 212 | 3.0 | 19.0 | 0.00 | 0.00 | 0.00 | 100 | 948.7 |
| 20260506211913 | 63 | 217 | 2.0 | 10.0 | 0.00 | 0.00 | 0.00 | 100 | 948.6 |
| 20260506211812 | 63 | 225 | 2.0 | 9.0 | 0.00 | 0.00 | 0.00 | 100 | 948.6 |
| 20260506211710 | 63 | 190 | 3.0 | 17.0 | 0.00 | 0.00 | 0.00 | 100 | 948.6 |
| 20260506211507 | 63 | 190 | 3.0 | 17.0 | 0.00 | 0.00 | 0.00 | 100 | 948.7 |
| 20260506211303 | 63 | 199 | 4.0 | 14.0 | 0.00 | 0.00 | 0.00 | 100 | 948.7 |
| 20260506211202 | 63 | 204 | 3.0 | 14.0 | 0.00 | 0.00 | 0.00 | 100 | 948.5 |
| 20260506211100 | 63 | 201 | 3.0 | 12.0 | 0.00 | 0.00 | 0.00 | 100 | 948.6 |
| 20260506210856 | 63 | 205 | 3.0 | 18.0 | 0.00 | 0.00 | 0.00 | 100 | 948.7 |
| 20260506210654 | 64 | 201 | 3.0 | 18.0 | 0.00 | 0.00 | 0.00 | 100 | 948.6 |
| 20260506210553 | 64 | 190 | 4.0 | 23.0 | 0.00 | 0.00 | 0.00 | 100 | 948.4 |
| 20260506210451 | 64 | 192 | 4.0 | 23.0 | 0.00 | 0.00 | 0.00 | 100 | 948.7 |
| 20260506210247 | 64 | 197 | 5.0 | 23.0 | 0.00 | 0.00 | 0.00 | 100 | 948.5 |
| 20260506210044 | 64 | 216 | 4.0 | 15.0 | 0.00 | 0.00 | 0.00 | 100 | 948.4 |
| 20260506205944 | 64 | 224 | 4.0 | 15.0 | 0.00 | 0.00 | 0.00 | 100 | 948.5 |
| 20260506205841 | 64 | 230 | 4.0 | 15.0 | 0.00 | 0.00 | 0.00 | 100 | 948.4 |
| 20260506205638 | 64 | 207 | 4.0 | 15.0 | 0.00 | 0.00 | 0.00 | 100 | 948.5 |
| 20260506205435 | 64 | 202 | 4.0 | 16.0 | 0.00 | 0.00 | 0.00 | 100 | 948.4 |
| 20260506205335 | 64 | 198 | 4.0 | 16.0 | 0.00 | 0.00 | 0.00 | 100 | 948.5 |
| 20260506205232 | 64 | 203 | 4.0 | 16.0 | 0.00 | 0.00 | 0.00 | 100 | 948.5 |
| 20260506205029 | 64 | 219 | 3.0 | 15.0 | 0.00 | 0.00 | 0.00 | 100 | 948.4 |
| 20260506204826 | 64 | 204 | 4.0 | 15.0 | 0.00 | 0.00 | 0.00 | 100 | 948.3 |
| 20260506204725 | 64 | 197 | 4.0 | 15.0 | 0.00 | 0.00 | 0.00 | 100 | 948.3 |
| 20260506204623 | 64 | 188 | 4.0 | 15.0 | 0.00 | 0.00 | 0.00 | 100 | 948.4 |
| 20260506204419 | 64 | 181 | 4.0 | 17.0 | 0.00 | 0.00 | 0.00 | 100 | 948.5 |
| 20260506204216 | 64 | 190 | 4.0 | 17.0 | 0.00 | 0.00 | 0.00 | 100 | 948.5 |
| 20260506204116 | 64 | 188 | 4.0 | 17.0 | 0.00 | 0.00 | 0.00 | 100 | 948.4 |
| 20260506204014 | 64 | 208 | 3.0 | 17.0 | 0.00 | 0.00 | 0.00 | 100 | 948.5 |
| 20260506203812 | 64 | 202 | 4.0 | 15.0 | 0.00 | 0.00 | 0.00 | 100 | 948.4 |
| 20260506203609 | 64 | 209 | 4.0 | 18.0 | 0.00 | 0.00 | 0.00 | 100 | 948.3 |
| 20260506203508 | 64 | 200 | 4.0 | 18.0 | 0.00 | 0.00 | 0.00 | 100 | 948.5 |
| 20260506203405 | 64 | 199 | 4.0 | 18.0 | 0.00 | 0.00 | 0.00 | 100 | 948.5 |
| 20260506203202 | 64 | 198 | 3.0 | 16.0 | 0.00 | 0.00 | 0.00 | 100 | 948.6 |
| 20260506202959 | 64 | 196 | 3.0 | 16.0 | 0.00 | 0.00 | 0.00 | 100 | 948.5 |
| 20260506202858 | 64 | 185 | 4.0 | 21.0 | 0.00 | 0.00 | 0.00 | 100 | 948.5 |
| 20260506202756 | 64 | 186 | 5.0 | 21.0 | 0.00 | 0.00 | 0.00 | 100 | 948.5 |
| 20260506202553 | 64 | 185 | 4.0 | 21.0 | 0.00 | 0.00 | 0.00 | 100 | 948.6 |
| 20260506202350 | 64 | 201 | 4.0 | 13.0 | 0.00 | 0.00 | 0.00 | 100 | 948.6 |
| 20260506202249 | 64 | 209 | 4.0 | 13.0 | 0.00 | 0.00 | 0.00 | 100 | 948.6 |
| 20260506202143 | 64 | 200 | 4.0 | 13.0 | 0.00 | 0.00 | 0.00 | 100 | 948.6 |
| 20260506201940 | 64 | 205 | 3.0 | 13.0 | 0.00 | 0.00 | 0.00 | 100 | 948.6 |
| 20260506201738 | 64 | 196 | 3.0 | 13.0 | 0.00 | 0.00 | 0.00 | 100 | 948.6 |
| 20260506201637 | 64 | 190 | 3.0 | 11.0 | 0.00 | 0.00 | 0.00 | 100 | 948.6 |
| 20260506201534 | 64 | 197 | 3.0 | 11.0 | 0.00 | 0.00 | 0.00 | 100 | 948.6 |
| 20260506201331 | 64 | 200 | 2.0 | 11.0 | 0.00 | 0.00 | 0.00 | 100 | 948.7 |
| 20260506201128 | 64 | 191 | 3.0 | 16.0 | 0.00 | 0.00 | 0.00 | 100 | 948.7 |
| 20260506201027 | 64 | 191 | 3.0 | 16.0 | 0.00 | 0.00 | 0.00 | 100 | 948.6 |
| 20260506200925 | 64 | 192 | 3.0 | 16.0 | 0.00 | 0.00 | 0.00 | 100 | 948.6 |
| 20260506200721 | 64 | 206 | 2.0 | 10.0 | 0.00 | 0.00 | 0.00 | 100 | 948.7 |
| 20260506200519 | 64 | 220 | 2.0 | 6.0 | 0.00 | 0.00 | 0.00 | 100 | 948.7 |
| 20260506200418 | 64 | 208 | 2.0 | 9.0 | 0.00 | 0.00 | 0.00 | 100 | 948.6 |
| 20260506200316 | 64 | 203 | 2.0 | 9.0 | 0.00 | 0.00 | 0.00 | 100 | 948.8 |
| 20260506200113 | 64 | 0 | 2.0 | 9.0 | 0.00 | 0.00 | 0.00 | 100 | 948.8 |
| 20260506195909 | 64 | 0 | 2.0 | 8.0 | 0.00 | 0.00 | 0.00 | 100 | 948.8 |
| 20260506195809 | 64 | 212 | 2.0 | 12.0 | 0.00 | 0.00 | 0.00 | 100 | 948.8 |
| 20260506195707 | 64 | 190 | 4.0 | 20.0 | 0.00 | 0.00 | 0.00 | 100 | 948.8 |
| 20260506195504 | 64 | 190 | 4.0 | 20.0 | 0.00 | 0.00 | 0.00 | 100 | 948.8 |
| 20260506195301 | 64 | 189 | 3.0 | 12.0 | 0.00 | 0.00 | 0.00 | 100 | 948.8 |
| 20260506195200 | 64 | 187 | 3.0 | 12.0 | 0.00 | 0.00 | 0.00 | 100 | 948.8 |
| 20260506195058 | 64 | 189 | 3.0 | 12.0 | 0.00 | 0.00 | 0.00 | 100 | 948.8 |
| 20260506194854 | 64 | 196 | 3.0 | 14.0 | 0.00 | 0.00 | 0.00 | 100 | 948.8 |
| 20260506194651 | 64 | 199 | 3.0 | 14.0 | 0.00 | 0.00 | 0.00 | 100 | 948.8 |
| 20260506194551 | 64 | 186 | 4.0 | 15.0 | 0.00 | 0.00 | 0.00 | 100 | 948.8 |
| 20260506194448 | 64 | 185 | 3.0 | 15.0 | 0.00 | 0.00 | 0.00 | 100 | 948.8 |
| 20260506194245 | 64 | 187 | 3.0 | 15.0 | 0.00 | 0.00 | 0.00 | 100 | 948.8 |
| 20260506194042 | 64 | 196 | 2.0 | 10.0 | 0.00 | 0.00 | 0.00 | 100 | 948.7 |
| 20260506193942 | 64 | 197 | 2.0 | 10.0 | 0.00 | 0.00 | 0.00 | 100 | 948.8 |
| 20260506193840 | 63 | 197 | 2.0 | 10.0 | 0.00 | 0.00 | 0.00 | 100 | 948.8 |
| 20260506193637 | 63 | 199 | 2.0 | 5.0 | 0.00 | 0.00 | 0.00 | 100 | 948.8 |
| 20260506193434 | 63 | 208 | 2.0 | 11.0 | 0.00 | 0.00 | 0.00 | 100 | 948.8 |
| 20260506193333 | 63 | 203 | 2.0 | 11.0 | 0.00 | 0.00 | 0.00 | 100 | 948.8 |
| 20260506193230 | 63 | 197 | 2.0 | 11.0 | 0.00 | 0.00 | 0.00 | 100 | 948.9 |
| 20260506193027 | 63 | 188 | 2.0 | 6.0 | 0.00 | 0.00 | 0.00 | 100 | 948.9 |
| 20260506192823 | 63 | 184 | 2.0 | 7.0 | 0.00 | 0.00 | 0.00 | 100 | 948.9 |
| 20260506192723 | 63 | 181 | 2.0 | 8.0 | 0.00 | 0.00 | 0.00 | 100 | 948.8 |
| 20260506192621 | 63 | 179 | 2.0 | 8.0 | 0.00 | 0.00 | 0.00 | 100 | 948.8 |
| 20260506192418 | 63 | 177 | 2.0 | 8.0 | 0.00 | 0.00 | 0.00 | 100 | 948.8 |
| 20260506192215 | 63 | 178 | 2.0 | 6.0 | 0.00 | 0.00 | 0.00 | 100 | 948.8 |
| 20260506192114 | 63 | 181 | 2.0 | 6.0 | 0.00 | 0.00 | 0.00 | 100 | 948.8 |
| 20260506191913 | 63 | 198 | 1.0 | 5.0 | 0.00 | 0.00 | 0.00 | 100 | 948.8 |
| 20260506191710 | 63 | 183 | 2.0 | 7.0 | 0.00 | 0.00 | 0.00 | 100 | 948.8 |
| 20260506191609 | 63 | 177 | 2.0 | 7.0 | 0.00 | 0.00 | 0.00 | 100 | 948.8 |
| 20260506191507 | 63 | 172 | 2.0 | 7.0 | 0.00 | 0.00 | 0.00 | 100 | 948.7 |
| 20260506191304 | 63 | 171 | 3.0 | 8.0 | 0.00 | 0.00 | 0.00 | 100 | 948.8 |
| 20260506191100 | 63 | 170 | 2.0 | 8.0 | 0.00 | 0.00 | 0.00 | 100 | 948.8 |
| 20260506191000 | 63 | 169 | 2.0 | 5.0 | 0.00 | 0.00 | 0.00 | 100 | 948.9 |
| 20260506190858 | 63 | 165 | 2.0 | 5.0 | 0.00 | 0.00 | 0.00 | 100 | 948.9 |
| 20260506190655 | 63 | 165 | 3.0 | 7.0 | 0.00 | 0.00 | 0.00 | 100 | 948.8 |
| 20260506190451 | 64 | 170 | 3.0 | 7.0 | 0.00 | 0.00 | 0.00 | 100 | 948.7 |
| 20260506190336 | 63 | 172 | 3.0 | 8.0 | 0.00 | 0.00 | 0.00 | 100 | 948.8 |
| 20260506190234 | 63 | 172 | 2.0 | 8.0 | 0.00 | 0.00 | 0.00 | 100 | 948.7 |
| 20260506190031 | 63 | 174 | 2.0 | 8.0 | 0.00 | 0.00 | 0.00 | 100 | 948.6 |
| 20260506185828 | 64 | 176 | 2.0 | 5.0 | 0.00 | 0.00 | 0.00 | 100 | 948.7 |
| 20260506185727 | 64 | 173 | 2.0 | 5.0 | 0.00 | 0.00 | 0.00 | 100 | 948.8 |
| 20260506185625 | 64 | 172 | 2.0 | 5.0 | 0.00 | 0.00 | 0.00 | 100 | 948.7 |
| 20260506185421 | 64 | 171 | 2.0 | 5.0 | 0.00 | 0.00 | 0.00 | 100 | 948.8 |
| 20260506185218 | 64 | 172 | 2.0 | 6.0 | 0.00 | 0.00 | 0.00 | 100 | 948.7 |
| 20260506185117 | 64 | 173 | 2.0 | 6.0 | 0.00 | 0.00 | 0.00 | 100 | 948.6 |
| 20260506185015 | 64 | 171 | 2.0 | 6.0 | 0.00 | 0.00 | 0.00 | 100 | 948.8 |
| 20260506184812 | 64 | 168 | 3.0 | 8.0 | 0.00 | 0.00 | 0.00 | 100 | 948.8 |
| 20260506184609 | 64 | 167 | 3.0 | 8.0 | 0.00 | 0.00 | 0.00 | 100 | 948.8 |
| 20260506184508 | 64 | 168 | 2.0 | 8.0 | 0.00 | 0.00 | 0.00 | 100 | 948.7 |
| 20260506184405 | 64 | 178 | 2.0 | 6.0 | 0.00 | 0.00 | 0.00 | 100 | 948.6 |
| 20260506184202 | 65 | 168 | 4.0 | 12.0 | 0.00 | 0.00 | 0.00 | 100 | 948.7 |
| 20260506183959 | 65 | 166 | 5.0 | 12.0 | 0.00 | 0.00 | 0.00 | 100 | 948.7 |
| 20260506183858 | 65 | 167 | 4.0 | 12.0 | 0.00 | 0.00 | 0.00 | 100 | 948.7 |
| 20260506183756 | 65 | 177 | 4.0 | 10.0 | 0.00 | 0.00 | 0.00 | 100 | 948.7 |
| 20260506183554 | 65 | 181 | 4.0 | 14.0 | 0.00 | 0.00 | 0.00 | 100 | 948.8 |
| 20260506183351 | 65 | 179 | 4.0 | 14.0 | 0.00 | 0.00 | 0.00 | 100 | 948.6 |
| 20260506183251 | 65 | 177 | 4.0 | 11.0 | 0.00 | 0.00 | 0.00 | 100 | 948.6 |
| 20260506183149 | 65 | 177 | 4.0 | 11.0 | 0.00 | 0.00 | 0.00 | 100 | 948.6 |
| 20260506182946 | 65 | 183 | 3.0 | 9.0 | 0.00 | 0.00 | 0.00 | 100 | 948.6 |
| 20260506182743 | 65 | 182 | 3.0 | 8.0 | 0.00 | 0.00 | 0.00 | 100 | 948.8 |
| 20260506182642 | 65 | 181 | 3.0 | 8.0 | 0.00 | 0.00 | 0.00 | 100 | 948.7 |
| 20260506182540 | 65 | 182 | 3.0 | 10.0 | 0.00 | 0.00 | 0.00 | 100 | 948.7 |
| 20260506182337 | 65 | 183 | 3.0 | 10.0 | 0.00 | 0.00 | 0.00 | 100 | 948.6 |
| 20260506182133 | 65 | 181 | 3.0 | 10.0 | 0.00 | 0.00 | 0.00 | 100 | 948.6 |
| 20260506182033 | 65 | 179 | 3.0 | 10.0 | 0.00 | 0.00 | 0.00 | 100 | 948.5 |
| 20260506181930 | 65 | 178 | 3.0 | 10.0 | 0.00 | 0.00 | 0.00 | 100 | 948.5 |
| 20260506181728 | 65 | 182 | 3.0 | 8.0 | 0.00 | 0.00 | 0.00 | 100 | 948.7 |
| 20260506181525 | 65 | 178 | 4.0 | 12.0 | 0.00 | 0.00 | 0.00 | 100 | 948.6 |
| 20260506181424 | 65 | 175 | 4.0 | 13.0 | 0.00 | 0.00 | 0.00 | 100 | 948.6 |
| 20260506181322 | 66 | 175 | 4.0 | 13.0 | 0.00 | 0.00 | 0.00 | 100 | 948.6 |
| 20260506181119 | 65 | 173 | 3.0 | 13.0 | 0.00 | 0.00 | 0.00 | 100 | 948.6 |
| 20260506180915 | 65 | 177 | 3.0 | 8.0 | 0.00 | 0.00 | 0.00 | 100 | 948.6 |
| 20260506180815 | 65 | 180 | 2.0 | 8.0 | 0.00 | 0.00 | 0.00 | 100 | 948.6 |
| 20260506180712 | 65 | 182 | 3.0 | 8.0 | 0.00 | 0.00 | 0.00 | 100 | 948.5 |
| 20260506180509 | 66 | 174 | 3.0 | 8.0 | 0.00 | 0.00 | 0.00 | 100 | 948.6 |
| 20260506180306 | 66 | 175 | 3.0 | 9.0 | 0.00 | 0.00 | 0.00 | 100 | 948.6 |
| 20260506180205 | 66 | 177 | 3.0 | 9.0 | 0.00 | 0.00 | 0.00 | 100 | 948.7 |
| 20260506175859 | 66 | 176 | 3.0 | 10.0 | 0.00 | 0.00 | 0.00 | 100 | 948.6 |
| 20260506175656 | 66 | 179 | 3.0 | 10.0 | 0.00 | 0.00 | 0.00 | 100 | 948.7 |
| 20260506175555 | 66 | 170 | 3.0 | 11.0 | 0.00 | 0.00 | 0.00 | 100 | 948.7 |
| 20260506175453 | 66 | 171 | 4.0 | 20.0 | 0.00 | 0.00 | 0.00 | 100 | 948.7 |
| 20260506175249 | 66 | 168 | 6.0 | 20.0 | 0.00 | 0.00 | 0.00 | 100 | 948.7 |
| 20260506175046 | 66 | 169 | 6.0 | 15.0 | 0.00 | 0.00 | 0.00 | 100 | 948.7 |
| 20260506174945 | 66 | 169 | 6.0 | 14.0 | 0.00 | 0.00 | 0.00 | 100 | 948.7 |
| 20260506174843 | 66 | 167 | 6.0 | 14.0 | 0.00 | 0.00 | 0.00 | 100 | 948.7 |
| 20260506174640 | 66 | 169 | 5.0 | 12.0 | 0.00 | 0.00 | 0.00 | 100 | 948.8 |
| 20260506174436 | 66 | 177 | 4.0 | 12.0 | 0.00 | 0.00 | 0.00 | 100 | 948.7 |
| 20260506174336 | 66 | 182 | 4.0 | 12.0 | 0.00 | 0.00 | 0.00 | 100 | 948.7 |
| 20260506174234 | 66 | 184 | 3.0 | 11.0 | 0.00 | 0.00 | 0.00 | 100 | 948.7 |
| 20260506174031 | 66 | 188 | 2.0 | 10.0 | 0.00 | 0.00 | 0.00 | 100 | 948.8 |
| 20260506173827 | 66 | 196 | 2.0 | 10.0 | 0.00 | 0.00 | 0.00 | 100 | 948.7 |
| 20260506173727 | 66 | 186 | 2.0 | 10.0 | 0.00 | 0.00 | 0.00 | 100 | 948.7 |
| 20260506173624 | 67 | 181 | 3.0 | 10.0 | 0.00 | 0.00 | 0.00 | 100 | 948.7 |
| 20260506173421 | 67 | 178 | 4.0 | 10.0 | 0.00 | 0.00 | 0.00 | 100 | 948.7 |
| 20260506173217 | 67 | 179 | 3.0 | 10.0 | 0.00 | 0.00 | 0.00 | 100 | 948.8 |
| 20260506173117 | 67 | 179 | 4.0 | 13.0 | 0.00 | 0.00 | 0.00 | 100 | 948.6 |
| 20260506173014 | 67 | 187 | 3.0 | 13.0 | 0.00 | 0.00 | 0.00 | 100 | 948.8 |
| 20260506172811 | 67 | 188 | 3.0 | 13.0 | 0.00 | 0.00 | 0.00 | 100 | 948.7 |
| 20260506172608 | 67 | 188 | 2.0 | 10.0 | 0.00 | 0.00 | 0.00 | 100 | 948.8 |
| 20260506172508 | 67 | 180 | 3.0 | 12.0 | 0.00 | 0.00 | 0.00 | 100 | 948.7 |
| 20260506172405 | 67 | 182 | 2.0 | 12.0 | 0.00 | 0.00 | 0.00 | 100 | 948.7 |
| 20260506172202 | 67 | 183 | 3.0 | 12.0 | 0.00 | 0.00 | 0.00 | 100 | 948.7 |
| 20260506171958 | 67 | 191 | 3.0 | 10.0 | 0.00 | 0.00 | 0.00 | 100 | 948.7 |
| 20260506171857 | 67 | 193 | 2.0 | 10.0 | 0.00 | 0.00 | 0.00 | 100 | 948.7 |
| 20260506171755 | 67 | 190 | 2.0 | 10.0 | 0.00 | 0.00 | 0.00 | 100 | 948.7 |
| 20260506171552 | 67 | 179 | 4.0 | 13.0 | 0.00 | 0.00 | 0.00 | 100 | 948.7 |
| 20260506171349 | 67 | 183 | 4.0 | 13.0 | 0.00 | 0.00 | 0.00 | 100 | 948.7 |
| 20260506171248 | 67 | 191 | 3.0 | 13.0 | 0.00 | 0.00 | 0.00 | 100 | 948.7 |
| 20260506171146 | 67 | 197 | 3.0 | 16.0 | 0.00 | 0.00 | 0.00 | 100 | 948.6 |
| 20260506170943 | 67 | 191 | 3.0 | 16.0 | 0.00 | 0.00 | 0.00 | 100 | 948.7 |
| 20260506170740 | 67 | 205 | 3.0 | 11.0 | 0.00 | 0.00 | 0.00 | 100 | 948.8 |
| 20260506170640 | 67 | 210 | 2.0 | 9.0 | 0.00 | 0.00 | 0.00 | 100 | 948.7 |
| 20260506170537 | 67 | 212 | 2.0 | 9.0 | 0.00 | 0.00 | 0.00 | 100 | 948.8 |
| 20260506170334 | 67 | 209 | 3.0 | 12.0 | 0.00 | 0.00 | 0.00 | 100 | 948.8 |
| 20260506170131 | 68 | 216 | 2.0 | 12.0 | 0.00 | 0.00 | 0.00 | 100 | 948.8 |
| 20260506170030 | 68 | 226 | 2.0 | 12.0 | 0.00 | 0.00 | 0.00 | 100 | 948.8 |
| 20260506165928 | 68 | 221 | 2.0 | 9.0 | 0.00 | 0.00 | 0.00 | 100 | 948.8 |
| 20260506165724 | 68 | 231 | 2.0 | 9.0 | 0.00 | 0.00 | 0.00 | 100 | 948.8 |
| 20260506165521 | 68 | 216 | 2.0 | 9.0 | 0.00 | 0.00 | 0.00 | 100 | 948.8 |
| 20260506165421 | 68 | 211 | 2.0 | 9.0 | 0.00 | 0.00 | 0.00 | 100 | 948.9 |
| 20260506165318 | 68 | 206 | 2.0 | 9.0 | 0.00 | 0.00 | 0.00 | 100 | 948.8 |
| 20260506165116 | 68 | 203 | 2.0 | 10.0 | 0.00 | 0.00 | 0.00 | 100 | 948.7 |
| 20260506164913 | 68 | 199 | 3.0 | 10.0 | 0.00 | 0.00 | 0.00 | 100 | 948.7 |
| 20260506164812 | 68 | 212 | 2.0 | 10.0 | 0.00 | 0.00 | 0.00 | 100 | 948.7 |
| 20260506164709 | 68 | 235 | 2.0 | 8.0 | 0.00 | 0.00 | 0.00 | 100 | 948.8 |
| 20260506164507 | 68 | 238 | 2.0 | 7.0 | 0.00 | 0.00 | 0.00 | 100 | 948.7 |
| 20260506164304 | 68 | 213 | 2.0 | 11.0 | 0.00 | 0.00 | 0.00 | 100 | 948.7 |
| 20260506164203 | 68 | 218 | 2.0 | 11.0 | 0.00 | 0.00 | 0.00 | 100 | 948.7 |
| 20260506164101 | 68 | 217 | 2.0 | 11.0 | 0.00 | 0.00 | 0.00 | 100 | 948.6 |
| 20260506163858 | 68 | 210 | 2.0 | 8.0 | 0.00 | 0.00 | 0.00 | 100 | 948.8 |
| 20260506163655 | 68 | 203 | 2.0 | 8.0 | 0.00 | 0.00 | 0.00 | 100 | 948.8 |
| 20260506163554 | 68 | 197 | 2.0 | 8.0 | 0.00 | 0.00 | 0.00 | 100 | 948.7 |
| 20260506163452 | 68 | 215 | 2.0 | 8.0 | 0.00 | 0.00 | 0.00 | 100 | 948.8 |
| 20260506163249 | 68 | 220 | 2.0 | 9.0 | 0.00 | 0.00 | 0.00 | 100 | 948.8 |
| 20260506163046 | 68 | 222 | 2.0 | 9.0 | 0.00 | 0.00 | 0.00 | 100 | 948.8 |
| 20260506162945 | 68 | 220 | 2.0 | 9.0 | 0.00 | 0.00 | 0.00 | 100 | 948.8 |
| 20260506162842 | 68 | 219 | 2.0 | 8.0 | 0.00 | 0.00 | 0.00 | 100 | 948.8 |
| 20260506162639 | 68 | 0 | 2.0 | 8.0 | 0.00 | 0.00 | 0.00 | 100 | 948.9 |
| 20260506162423 | 68 | 0 | 2.0 | 9.0 | 0.00 | 0.00 | 0.00 | 100 | 948.9 |
| 20260506162322 | 68 | 0 | 2.0 | 10.0 | 0.00 | 0.00 | 0.00 | 100 | 948.8 |
| 20260506162219 | 68 | 219 | 2.0 | 10.0 | 0.00 | 0.00 | 0.00 | 100 | 948.8 |
| 20260506162016 | 68 | 223 | 2.0 | 10.0 | 0.00 | 0.00 | 0.00 | 100 | 948.9 |
| 20260506161813 | 68 | 0 | 2.0 | 8.0 | 0.00 | 0.00 | 0.00 | 100 | 949.0 |
| 20260506161712 | 68 | 0 | 2.0 | 8.0 | 0.00 | 0.00 | 0.00 | 100 | 948.9 |
| 20260506161610 | 68 | 220 | 2.0 | 10.0 | 0.00 | 0.00 | 0.00 | 100 | 948.9 |
| 20260506161406 | 68 | 214 | 3.0 | 13.0 | 0.00 | 0.00 | 0.00 | 100 | 948.9 |
| 20260506161203 | 69 | 220 | 2.0 | 13.0 | 0.00 | 0.00 | 0.00 | 100 | 948.8 |
| 20260506161102 | 69 | 235 | 2.0 | 11.0 | 0.00 | 0.00 | 0.00 | 100 | 949.0 |
| 20260506160959 | 69 | 225 | 2.0 | 11.0 | 0.00 | 0.00 | 0.00 | 100 | 949.0 |
| 20260506160757 | 69 | 219 | 2.0 | 10.0 | 0.00 | 0.00 | 0.00 | 100 | 948.9 |
| 20260506160553 | 69 | 210 | 2.0 | 9.0 | 0.00 | 0.00 | 0.00 | 100 | 948.9 |
| 20260506160453 | 69 | 213 | 2.0 | 13.0 | 0.00 | 0.00 | 0.00 | 100 | 948.9 |
| 20260506160350 | 69 | 216 | 2.0 | 13.0 | 0.00 | 0.00 | 0.00 | 100 | 948.8 |
| 20260506160147 | 69 | 209 | 3.0 | 15.0 | 0.00 | 0.00 | 0.00 | 100 | 949.0 |
| 20260506155944 | 69 | 190 | 3.0 | 15.0 | 0.00 | 0.00 | 0.00 | 100 | 949.0 |
| 20260506155843 | 69 | 188 | 4.0 | 17.0 | 0.00 | 0.00 | 0.00 | 100 | 948.9 |
| 20260506155740 | 69 | 189 | 4.0 | 17.0 | 0.00 | 0.00 | 0.00 | 100 | 949.0 |
| 20260506155538 | 69 | 191 | 3.0 | 16.0 | 0.00 | 0.00 | 0.00 | 100 | 948.8 |
| 20260506155334 | 70 | 204 | 3.0 | 10.0 | 0.00 | 0.00 | 0.00 | 100 | 948.9 |
| 20260506155233 | 70 | 205 | 3.0 | 10.0 | 0.00 | 0.00 | 0.00 | 100 | 948.9 |
| 20260506155132 | 70 | 212 | 3.0 | 10.0 | 0.00 | 0.00 | 0.00 | 100 | 948.9 |
| 20260506154929 | 70 | 217 | 3.0 | 10.0 | 0.00 | 0.00 | 0.00 | 100 | 949.0 |
| 20260506154726 | 70 | 229 | 2.0 | 10.0 | 0.00 | 0.00 | 0.00 | 100 | 949.0 |
| 20260506154625 | 70 | 231 | 2.0 | 10.0 | 0.00 | 0.00 | 0.00 | 100 | 949.0 |
| 20260506154522 | 70 | 206 | 3.0 | 14.0 | 0.00 | 0.00 | 0.00 | 100 | 949.0 |
| 20260506154319 | 70 | 189 | 4.0 | 16.0 | 0.00 | 0.00 | 0.00 | 100 | 949.1 |
| 20260506154116 | 70 | 203 | 3.0 | 16.0 | 0.00 | 0.00 | 0.00 | 100 | 949.0 |
| 20260506154015 | 70 | 207 | 3.0 | 16.0 | 0.00 | 0.00 | 0.00 | 100 | 949.0 |
| 20260506153913 | 70 | 214 | 2.0 | 14.0 | 0.00 | 0.00 | 0.00 | 100 | 948.9 |
| 20260506153710 | 70 | 238 | 2.0 | 8.0 | 0.00 | 0.00 | 0.00 | 100 | 949.1 |
| 20260506153507 | 70 | 224 | 2.0 | 10.0 | 0.00 | 0.00 | 0.00 | 100 | 949.1 |
| 20260506153406 | 70 | 216 | 3.0 | 12.0 | 0.00 | 0.00 | 0.00 | 100 | 949.1 |
| 20260506153303 | 69 | 194 | 3.0 | 12.0 | 0.00 | 0.00 | 0.00 | 100 | 949.1 |
| 20260506153101 | 69 | 194 | 3.0 | 12.0 | 0.00 | 0.00 | 0.00 | 100 | 949.1 |
| 20260506152858 | 69 | 229 | 2.0 | 10.0 | 0.00 | 0.00 | 0.00 | 100 | 949.1 |
| 20260506152757 | 69 | 242 | 2.0 | 10.0 | 0.00 | 0.00 | 0.00 | 100 | 949.2 |
| 20260506152655 | 69 | 212 | 2.0 | 10.0 | 0.00 | 0.00 | 0.00 | 100 | 949.1 |
| 20260506152453 | 69 | 205 | 2.0 | 10.0 | 0.00 | 0.00 | 0.00 | 100 | 949.2 |
| 20260506152250 | 69 | 225 | 2.0 | 10.0 | 0.00 | 0.00 | 0.00 | 100 | 949.3 |
| 20260506152149 | 69 | 218 | 2.0 | 10.0 | 0.00 | 0.00 | 0.00 | 100 | 949.2 |
| 20260506152046 | 69 | 207 | 3.0 | 12.0 | 0.00 | 0.00 | 0.00 | 100 | 949.3 |
| 20260506151843 | 69 | 204 | 3.0 | 12.0 | 0.00 | 0.00 | 0.00 | 100 | 949.2 |
| 20260506151640 | 69 | 206 | 3.0 | 12.0 | 0.00 | 0.00 | 0.00 | 100 | 949.2 |
| 20260506151540 | 69 | 205 | 3.0 | 9.0 | 0.00 | 0.00 | 0.00 | 100 | 949.2 |
| 20260506151437 | 69 | 204 | 3.0 | 9.0 | 0.00 | 0.00 | 0.00 | 100 | 949.2 |
| 20260506151234 | 69 | 200 | 3.0 | 10.0 | 0.00 | 0.00 | 0.00 | 100 | 949.2 |
| 20260506151032 | 69 | 181 | 3.0 | 11.0 | 0.00 | 0.00 | 0.00 | 100 | 949.2 |
| 20260506150931 | 69 | 174 | 4.0 | 16.0 | 0.00 | 0.00 | 0.00 | 100 | 949.3 |
| 20260506150828 | 69 | 172 | 5.0 | 17.0 | 0.00 | 0.00 | 0.00 | 100 | 949.2 |
| 20260506150626 | 69 | 171 | 4.0 | 17.0 | 0.00 | 0.00 | 0.00 | 100 | 949.3 |
| 20260506150423 | 70 | 201 | 2.0 | 10.0 | 0.00 | 0.00 | 0.00 | 100 | 949.3 |
| 20260506150323 | 70 | 179 | 4.0 | 15.0 | 0.00 | 0.00 | 0.00 | 100 | 949.4 |
| 20260506150220 | 70 | 178 | 4.0 | 15.0 | 0.00 | 0.00 | 0.00 | 100 | 949.4 |
| 20260506150017 | 70 | 174 | 4.0 | 15.0 | 0.00 | 0.00 | 0.00 | 100 | 949.4 |
| 20260506145814 | 70 | 178 | 3.0 | 13.0 | 0.00 | 0.00 | 0.00 | 100 | 949.3 |
| 20260506145713 | 70 | 177 | 4.0 | 14.0 | 0.00 | 0.00 | 0.00 | 100 | 949.4 |
| 20260506145610 | 70 | 182 | 3.0 | 14.0 | 0.00 | 0.00 | 0.00 | 100 | 949.4 |
| 20260506145407 | 69 | 188 | 4.0 | 14.0 | 0.00 | 0.00 | 0.00 | 100 | 949.3 |
| 20260506145204 | 69 | 184 | 4.0 | 14.0 | 0.00 | 0.00 | 0.00 | 100 | 949.4 |
| 20260506145104 | 69 | 185 | 4.0 | 14.0 | 0.00 | 0.00 | 0.00 | 100 | 949.3 |
| 20260506145002 | 69 | 181 | 4.0 | 15.0 | 0.00 | 0.00 | 0.00 | 100 | 949.3 |
| 20260506144758 | 69 | 187 | 4.0 | 15.0 | 0.00 | 0.00 | 0.00 | 100 | 949.5 |
| 20260506144555 | 69 | 188 | 4.0 | 14.0 | 0.00 | 0.00 | 0.00 | 100 | 949.5 |
| 20260506144455 | 69 | 189 | 4.0 | 14.0 | 0.00 | 0.00 | 0.00 | 100 | 949.5 |
| 20260506144353 | 69 | 191 | 4.0 | 13.0 | 0.00 | 0.00 | 0.00 | 100 | 949.5 |
| 20260506144149 | 69 | 192 | 4.0 | 15.0 | 0.00 | 0.00 | 0.00 | 100 | 949.4 |
| 20260506143946 | 69 | 191 | 4.0 | 15.0 | 0.00 | 0.00 | 0.00 | 100 | 949.4 |
| 20260506143845 | 69 | 194 | 3.0 | 15.0 | 0.00 | 0.00 | 0.00 | 100 | 949.5 |
| 20260506143743 | 70 | 191 | 4.0 | 15.0 | 0.00 | 0.00 | 0.00 | 100 | 949.3 |
| 20260506143540 | 70 | 198 | 4.0 | 16.0 | 0.00 | 0.00 | 0.00 | 100 | 949.3 |
| 20260506143337 | 70 | 203 | 3.0 | 13.0 | 0.00 | 0.00 | 0.00 | 100 | 949.5 |
| 20260506143236 | 70 | 204 | 2.0 | 9.0 | 0.00 | 0.00 | 0.00 | 100 | 949.5 |
| 20260506143134 | 70 | 201 | 2.0 | 13.0 | 0.00 | 0.00 | 0.00 | 100 | 949.4 |
| 20260506142931 | 70 | 192 | 3.0 | 14.0 | 0.00 | 0.00 | 0.00 | 100 | 949.6 |
| 20260506142728 | 70 | 196 | 3.0 | 14.0 | 0.00 | 0.00 | 0.00 | 100 | 949.4 |
| 20260506142627 | 70 | 210 | 3.0 | 14.0 | 0.00 | 0.00 | 0.00 | 100 | 949.5 |
| 20260506142525 | 70 | 204 | 3.0 | 9.0 | 0.00 | 0.00 | 0.00 | 100 | 949.5 |
| 20260506142321 | 70 | 201 | 3.0 | 10.0 | 0.00 | 0.00 | 0.00 | 100 | 949.5 |
| 20260506142118 | 70 | 193 | 3.0 | 12.0 | 0.00 | 0.00 | 0.00 | 100 | 949.4 |
| 20260506142017 | 70 | 200 | 3.0 | 12.0 | 0.00 | 0.00 | 0.00 | 100 | 949.4 |
| 20260506141914 | 70 | 198 | 2.0 | 12.0 | 0.00 | 0.00 | 0.00 | 100 | 949.5 |
| 20260506141711 | 70 | 206 | 2.0 | 12.0 | 0.00 | 0.00 | 0.00 | 100 | 949.5 |
| 20260506141508 | 70 | 195 | 3.0 | 16.0 | 0.00 | 0.00 | 0.00 | 100 | 949.6 |
| 20260506141407 | 70 | 186 | 5.0 | 19.0 | 0.00 | 0.00 | 0.00 | 100 | 949.4 |
| 20260506141304 | 70 | 185 | 5.0 | 19.0 | 0.00 | 0.00 | 0.00 | 100 | 949.4 |
| 20260506141101 | 70 | 176 | 5.0 | 19.0 | 0.00 | 0.00 | 0.00 | 100 | 949.4 |
| 20260506140858 | 70 | 177 | 5.0 | 17.0 | 0.00 | 0.00 | 0.00 | 100 | 949.4 |
| 20260506140757 | 70 | 177 | 4.0 | 17.0 | 0.00 | 0.00 | 0.00 | 100 | 949.4 |
| 20260506140654 | 71 | 185 | 4.0 | 16.0 | 0.00 | 0.00 | 0.00 | 100 | 949.4 |
| 20260506140452 | 72 | 204 | 2.0 | 12.0 | 0.00 | 0.00 | 0.00 | 100 | 949.4 |
| 20260506140248 | 72 | 213 | 2.0 | 12.0 | 0.00 | 0.00 | 0.00 | 100 | 949.4 |
| 20260506140147 | 73 | 212 | 3.0 | 15.0 | 0.00 | 0.00 | 0.00 | 100 | 949.4 |
| 20260506140045 | 73 | 213 | 2.0 | 15.0 | 0.00 | 0.00 | 0.00 | 100 | 949.4 |
| 20260506135842 | 74 | 226 | 2.0 | 15.0 | 0.00 | 0.00 | 0.00 | 100 | 949.4 |
| 20260506135638 | 74 | 244 | 2.0 | 11.0 | 0.00 | 0.00 | 0.00 | 100 | 949.4 |
| 20260506135537 | 74 | 239 | 3.0 | 11.0 | 0.00 | 0.00 | 0.00 | 100 | 949.4 |
| 20260506135435 | 74 | 241 | 2.0 | 11.0 | 0.00 | 0.00 | 0.00 | 100 | 949.3 |
| 20260506135232 | 74 | 240 | 2.0 | 9.0 | 0.00 | 0.00 | 0.00 | 100 | 949.3 |
| 20260506135029 | 73 | 241 | 2.0 | 12.0 | 0.00 | 0.00 | 0.00 | 100 | 949.3 |
| 20260506134928 | 73 | 226 | 2.0 | 12.0 | 0.00 | 0.00 | 0.00 | 100 | 949.4 |
| 20260506134826 | 73 | 213 | 3.0 | 12.0 | 0.00 | 0.00 | 0.00 | 100 | 949.3 |
| 20260506134622 | 73 | 192 | 4.0 | 15.0 | 0.00 | 0.00 | 0.00 | 100 | 949.3 |
| 20260506134409 | 73 | 203 | 4.0 | 15.0 | 0.00 | 0.00 | 0.00 | 100 | 949.3 |
| 20260506134309 | 73 | 211 | 4.0 | 15.0 | 0.00 | 0.00 | 0.00 | 100 | 949.4 |
| 20260506134206 | 73 | 247 | 2.0 | 11.0 | 0.00 | 0.00 | 0.00 | 100 | 949.4 |
| 20260506134004 | 74 | 230 | 2.0 | 10.0 | 0.00 | 0.00 | 0.00 | 100 | 949.4 |
| 20260506133801 | 73 | 202 | 2.0 | 11.0 | 0.00 | 0.00 | 0.00 | 100 | 949.4 |
| 20260506133700 | 73 | 207 | 2.0 | 11.0 | 0.00 | 0.00 | 0.00 | 100 | 949.4 |
| 20260506133558 | 72 | 195 | 3.0 | 13.0 | 0.00 | 0.00 | 0.00 | 100 | 949.3 |
| 20260506133354 | 72 | 190 | 4.0 | 15.0 | 0.00 | 0.00 | 0.00 | 100 | 949.4 |
| 20260506133151 | 71 | 190 | 5.0 | 15.0 | 0.00 | 0.00 | 0.00 | 100 | 949.2 |
| 20260506133050 | 71 | 202 | 3.0 | 12.0 | 0.00 | 0.00 | 0.00 | 100 | 949.2 |
| 20260506132948 | 72 | 198 | 3.0 | 12.0 | 0.00 | 0.00 | 0.00 | 100 | 949.4 |
| 20260506132744 | 72 | 211 | 2.0 | 11.0 | 0.00 | 0.00 | 0.00 | 100 | 949.4 |
| 20260506132541 | 71 | 202 | 3.0 | 16.0 | 0.00 | 0.00 | 0.00 | 100 | 949.4 |
| 20260506132441 | 71 | 211 | 3.0 | 16.0 | 0.00 | 0.00 | 0.00 | 100 | 949.4 |
| 20260506132338 | 71 | 203 | 3.0 | 16.0 | 0.00 | 0.00 | 0.00 | 100 | 949.3 |
| 20260506132134 | 71 | 191 | 4.0 | 16.0 | 0.00 | 0.00 | 0.00 | 100 | 949.3 |
| 20260506131931 | 72 | 185 | 4.0 | 14.0 | 0.00 | 0.00 | 0.00 | 100 | 949.3 |
| 20260506131831 | 72 | 189 | 3.0 | 14.0 | 0.00 | 0.00 | 0.00 | 100 | 949.3 |
| 20260506131729 | 72 | 206 | 3.0 | 14.0 | 0.00 | 0.00 | 0.00 | 100 | 949.2 |
| 20260506131526 | 73 | 215 | 2.0 | 8.0 | 0.00 | 0.00 | 0.00 | 100 | 949.3 |
| 20260506131324 | 73 | 228 | 2.0 | 7.0 | 0.00 | 0.00 | 0.00 | 100 | 949.3 |
| 20260506131223 | 73 | 224 | 2.0 | 8.0 | 0.00 | 0.00 | 0.00 | 100 | 949.3 |
| 20260506131120 | 73 | 246 | 2.0 | 8.0 | 0.00 | 0.00 | 0.00 | 100 | 949.4 |
| 20260506130917 | 73 | 209 | 3.0 | 10.0 | 0.00 | 0.00 | 0.00 | 100 | 949.3 |
| 20260506130715 | 73 | 191 | 4.0 | 11.0 | 0.00 | 0.00 | 0.00 | 100 | 949.5 |
| 20260506130614 | 73 | 187 | 4.0 | 13.0 | 0.00 | 0.00 | 0.00 | 100 | 949.4 |
| 20260506130511 | 73 | 189 | 3.0 | 13.0 | 0.00 | 0.00 | 0.00 | 100 | 949.3 |
| 20260506130308 | 73 | 205 | 2.0 | 15.0 | 0.00 | 0.00 | 0.00 | 100 | 949.4 |
| 20260506130105 | 73 | 208 | 2.0 | 15.0 | 0.00 | 0.00 | 0.00 | 100 | 949.5 |
| 20260506130005 | 73 | 215 | 3.0 | 15.0 | 0.00 | 0.00 | 0.00 | 100 | 949.5 |
| 20260506125902 | 73 | 230 | 2.0 | 12.0 | 0.00 | 0.00 | 0.00 | 100 | 949.5 |
| 20260506125659 | 73 | 0 | 2.0 | 7.0 | 0.00 | 0.00 | 0.00 | 100 | 949.5 |
| 20260506125456 | 73 | 233 | 2.0 | 9.0 | 0.00 | 0.00 | 0.00 | 100 | 949.3 |
| 20260506125355 | 73 | 236 | 3.0 | 14.0 | 0.00 | 0.00 | 0.00 | 100 | 949.5 |
| 20260506125254 | 73 | 243 | 3.0 | 14.0 | 0.00 | 0.00 | 0.00 | 100 | 949.5 |
| 20260506125050 | 72 | 239 | 4.0 | 14.0 | 0.00 | 0.00 | 0.00 | 100 | 949.6 |
| 20260506124846 | 72 | 229 | 4.0 | 13.0 | 0.00 | 0.00 | 0.00 | 100 | 949.6 |
| 20260506124746 | 72 | 236 | 4.0 | 13.0 | 0.00 | 0.00 | 0.00 | 100 | 949.6 |
| 20260506124643 | 72 | 237 | 4.0 | 13.0 | 0.00 | 0.00 | 0.00 | 100 | 949.6 |
| 20260506124439 | 73 | 235 | 3.0 | 13.0 | 0.00 | 0.00 | 0.00 | 100 | 949.6 |
| 20260506124237 | 73 | 236 | 3.0 | 13.0 | 0.00 | 0.00 | 0.00 | 100 | 949.6 |
| 20260506124136 | 73 | 238 | 2.0 | 13.0 | 0.00 | 0.00 | 0.00 | 100 | 949.6 |
| 20260506124034 | 73 | 240 | 2.0 | 8.0 | 0.00 | 0.00 | 0.00 | 100 | 949.6 |
| 20260506123830 | 73 | 229 | 2.0 | 8.0 | 0.00 | 0.00 | 0.00 | 100 | 949.7 |
| 20260506123627 | 73 | 226 | 2.0 | 11.0 | 0.00 | 0.00 | 0.00 | 100 | 949.8 |
| 20260506123527 | 73 | 220 | 2.0 | 11.0 | 0.00 | 0.00 | 0.00 | 100 | 949.8 |
| 20260506123425 | 73 | 236 | 2.0 | 17.0 | 0.00 | 0.00 | 0.00 | 100 | 949.8 |
| 20260506123221 | 72 | 241 | 2.0 | 17.0 | 0.00 | 0.00 | 0.00 | 100 | 949.7 |
| 20260506123018 | 72 | 238 | 2.0 | 9.0 | 0.00 | 0.00 | 0.00 | 100 | 949.8 |
| 20260506122917 | 72 | 240 | 2.0 | 11.0 | 0.00 | 0.00 | 0.00 | 100 | 949.8 |
| 20260506122815 | 72 | 243 | 2.0 | 11.0 | 0.00 | 0.00 | 0.00 | 100 | 949.8 |
| 20260506122612 | 73 | 222 | 2.0 | 11.0 | 0.00 | 0.00 | 0.00 | 100 | 949.5 |
| 20260506122409 | 73 | 210 | 2.0 | 10.0 | 0.00 | 0.00 | 0.00 | 100 | 949.8 |
| 20260506122309 | 73 | 218 | 2.0 | 10.0 | 0.00 | 0.00 | 0.00 | 100 | 949.8 |
| 20260506122206 | 73 | 237 | 2.0 | 10.0 | 0.00 | 0.00 | 0.00 | 100 | 949.9 |
| 20260506122003 | 73 | 252 | 2.0 | 9.0 | 0.00 | 0.00 | 0.00 | 100 | 949.8 |
| 20260506121800 | 73 | 207 | 2.0 | 11.0 | 0.00 | 0.00 | 0.00 | 100 | 949.8 |
| 20260506121700 | 73 | 204 | 2.0 | 11.0 | 0.00 | 0.00 | 0.00 | 100 | 949.8 |
| 20260506121558 | 73 | 197 | 2.0 | 11.0 | 0.00 | 0.00 | 0.00 | 100 | 949.8 |
| 20260506121355 | 73 | 209 | 2.0 | 10.0 | 0.00 | 0.00 | 0.00 | 100 | 949.8 |
| 20260506121152 | 73 | 204 | 3.0 | 13.0 | 0.00 | 0.00 | 0.00 | 100 | 949.8 |
| 20260506121051 | 73 | 195 | 3.0 | 13.0 | 0.00 | 0.00 | 0.00 | 100 | 949.8 |
| 20260506120948 | 73 | 201 | 3.0 | 13.0 | 0.00 | 0.00 | 0.00 | 100 | 949.6 |
| 20260506120745 | 72 | 202 | 3.0 | 15.0 | 0.00 | 0.00 | 0.00 | 100 | 949.7 |
| 20260506120542 | 72 | 177 | 4.0 | 15.0 | 0.00 | 0.00 | 0.00 | 100 | 949.8 |
| 20260506120442 | 72 | 173 | 6.0 | 15.0 | 0.00 | 0.00 | 0.00 | 100 | 949.6 |
| 20260506120340 | 72 | 171 | 6.0 | 15.0 | 0.00 | 0.00 | 0.00 | 100 | 949.7 |
| 20260506120136 | 72 | 171 | 4.0 | 15.0 | 0.00 | 0.00 | 0.00 | 100 | 949.7 |
| 20260506115932 | 72 | 180 | 4.0 | 13.0 | 0.00 | 0.00 | 0.00 | 100 | 949.7 |
| 20260506115832 | 73 | 179 | 4.0 | 13.0 | 0.00 | 0.00 | 0.00 | 100 | 949.8 |
| 20260506115729 | 73 | 179 | 4.0 | 13.0 | 0.00 | 0.00 | 0.00 | 100 | 949.6 |
| 20260506115526 | 72 | 179 | 3.0 | 12.0 | 0.00 | 0.00 | 0.00 | 100 | 949.7 |
| 20260506115322 | 73 | 127 | 2.0 | 12.0 | 0.00 | 0.00 | 0.00 | 100 | 949.7 |
| 20260506115222 | 72 | 126 | 3.0 | 12.0 | 0.00 | 0.00 | 0.00 | 100 | 949.8 |
| 20260506115120 | 72 | 151 | 3.0 | 12.0 | 0.00 | 0.00 | 0.00 | 100 | 949.7 |
| 20260506114917 | 72 | 197 | 3.0 | 12.0 | 0.00 | 0.00 | 0.00 | 100 | 949.8 |
| 20260506114714 | 72 | 194 | 3.0 | 17.0 | 0.00 | 0.00 | 0.00 | 100 | 949.8 |
| 20260506114613 | 72 | 183 | 4.0 | 17.0 | 0.00 | 0.00 | 0.00 | 100 | 949.7 |
| 20260506114510 | 71 | 183 | 4.0 | 17.0 | 0.00 | 0.00 | 0.00 | 100 | 949.6 |
| 20260506114307 | 71 | 213 | 4.0 | 14.0 | 0.00 | 0.00 | 0.00 | 100 | 949.8 |
| 20260506114105 | 71 | 240 | 4.0 | 14.0 | 0.00 | 0.00 | 0.00 | 100 | 949.8 |
| 20260506114004 | 71 | 254 | 6.0 | 17.0 | 0.00 | 0.00 | 0.00 | 100 | 949.8 |
| 20260506113902 | 71 | 256 | 5.0 | 17.0 | 0.00 | 0.00 | 0.00 | 100 | 949.8 |
| 20260506113658 | 70 | 254 | 6.0 | 17.0 | 0.00 | 0.00 | 0.00 | 100 | 949.7 |
| 20260506113455 | 70 | 232 | 3.0 | 15.0 | 0.00 | 0.00 | 0.00 | 100 | 949.8 |
| 20260506113355 | 70 | 232 | 3.0 | 15.0 | 0.00 | 0.00 | 0.00 | 100 | 949.9 |
| 20260506113253 | 70 | 216 | 3.0 | 12.0 | 0.00 | 0.00 | 0.00 | 100 | 949.9 |
| 20260506113050 | 70 | 235 | 4.0 | 18.0 | 0.00 | 0.00 | 0.00 | 100 | 949.9 |
| 20260506112847 | 70 | 237 | 3.0 | 18.0 | 0.00 | 0.00 | 0.00 | 100 | 949.9 |
| 20260506112746 | 70 | 219 | 3.0 | 13.0 | 0.00 | 0.00 | 0.00 | 100 | 949.9 |
| 20260506112644 | 70 | 255 | 4.0 | 13.0 | 0.00 | 0.00 | 0.00 | 100 | 949.9 |
| 20260506112441 | 69 | 261 | 8.0 | 17.0 | 0.00 | 0.00 | 0.00 | 100 | 950.0 |
| 20260506112238 | 69 | 261 | 6.0 | 17.0 | 0.00 | 0.00 | 0.00 | 100 | 949.8 |
| 20260506112137 | 71 | 248 | 4.0 | 17.0 | 0.00 | 0.00 | 0.00 | 100 | 949.8 |
| 20260506112035 | 71 | 249 | 3.0 | 15.0 | 0.00 | 0.00 | 0.00 | 100 | 949.8 |
| 20260506111832 | 71 | 250 | 5.0 | 15.0 | 0.00 | 0.00 | 0.00 | 100 | 950.0 |
| 20260506111629 | 70 | 251 | 5.0 | 15.0 | 0.00 | 0.00 | 0.00 | 100 | 949.9 |
| 20260506111528 | 71 | 240 | 3.0 | 15.0 | 0.00 | 0.00 | 0.00 | 100 | 949.9 |
| 20260506111426 | 71 | 241 | 3.0 | 13.0 | 0.00 | 0.00 | 0.00 | 100 | 950.0 |
| 20260506111224 | 71 | 231 | 3.0 | 12.0 | 0.00 | 0.00 | 0.00 | 100 | 949.9 |
| 20260506111020 | 71 | 242 | 5.0 | 19.0 | 0.00 | 0.00 | 0.00 | 100 | 949.9 |
| 20260506110920 | 71 | 243 | 4.0 | 19.0 | 0.00 | 0.00 | 0.00 | 100 | 950.0 |
| 20260506110818 | 71 | 246 | 3.0 | 19.0 | 0.00 | 0.00 | 0.00 | 100 | 950.0 |
| 20260506110601 | 71 | 243 | 2.0 | 10.0 | 0.00 | 0.00 | 0.00 | 100 | 949.9 |
| 20260506110359 | 70 | 251 | 6.0 | 20.0 | 0.00 | 0.00 | 0.00 | 100 | 949.9 |
| 20260506110258 | 70 | 252 | 7.0 | 20.0 | 0.00 | 0.00 | 0.00 | 100 | 949.9 |
| 20260506110155 | 70 | 250 | 6.0 | 20.0 | 0.00 | 0.00 | 0.00 | 100 | 949.8 |
| 20260506105953 | 70 | 233 | 4.0 | 13.0 | 0.00 | 0.00 | 0.00 | 100 | 949.9 |
| 20260506105750 | 70 | 229 | 4.0 | 16.0 | 0.00 | 0.00 | 0.00 | 100 | 950.0 |
| 20260506105650 | 71 | 231 | 4.0 | 16.0 | 0.00 | 0.00 | 0.00 | 100 | 950.0 |
| 20260506105547 | 70 | 232 | 4.0 | 16.0 | 0.00 | 0.00 | 0.00 | 100 | 950.0 |
| 20260506105344 | 70 | 238 | 4.0 | 14.0 | 0.00 | 0.00 | 0.00 | 100 | 950.0 |
| 20260506105140 | 71 | 235 | 3.0 | 13.0 | 0.00 | 0.00 | 0.00 | 100 | 949.9 |
| 20260506105039 | 71 | 233 | 3.0 | 13.0 | 0.00 | 0.00 | 0.00 | 100 | 950.0 |
| 20260506104937 | 71 | 232 | 3.0 | 16.0 | 0.00 | 0.00 | 0.00 | 100 | 950.0 |
| 20260506104734 | 71 | 235 | 2.0 | 16.0 | 0.00 | 0.00 | 0.00 | 100 | 950.0 |
| 20260506104531 | 71 | 242 | 2.0 | 10.0 | 0.00 | 0.00 | 0.00 | 100 | 950.1 |
| 20260506104431 | 71 | 246 | 2.0 | 10.0 | 0.00 | 0.00 | 0.00 | 100 | 950.0 |
| 20260506104328 | 71 | 243 | 2.0 | 10.0 | 0.00 | 0.00 | 0.00 | 100 | 950.0 |
| 20260506104125 | 71 | 0 | 2.0 | 10.0 | 0.00 | 0.00 | 0.00 | 100 | 950.1 |
| 20260506103922 | 70 | 186 | 3.0 | 11.0 | 0.00 | 0.00 | 0.00 | 100 | 950.1 |
| 20260506103821 | 70 | 179 | 3.0 | 15.0 | 0.00 | 0.00 | 0.00 | 100 | 950.1 |
| 20260506103719 | 70 | 179 | 4.0 | 15.0 | 0.00 | 0.00 | 0.00 | 100 | 950.0 |
| 20260506103516 | 70 | 187 | 3.0 | 15.0 | 0.00 | 0.00 | 0.00 | 100 | 950.0 |
| 20260506103313 | 71 | 240 | 2.0 | 11.0 | 0.00 | 0.00 | 0.00 | 100 | 950.1 |
| 20260506103212 | 70 | 231 | 2.0 | 11.0 | 0.00 | 0.00 | 0.00 | 100 | 950.1 |
| 20260506103110 | 70 | 214 | 3.0 | 12.0 | 0.00 | 0.00 | 0.00 | 100 | 950.1 |
| 20260506102907 | 70 | 209 | 2.0 | 12.0 | 0.00 | 0.00 | 0.00 | 100 | 950.1 |
| 20260506102704 | 70 | 208 | 2.0 | 12.0 | 0.00 | 0.00 | 0.00 | 100 | 950.1 |
| 20260506102603 | 71 | 197 | 2.0 | 12.0 | 0.00 | 0.00 | 0.00 | 100 | 950.1 |
| 20260506102500 | 71 | 198 | 2.0 | 12.0 | 0.00 | 0.00 | 0.00 | 100 | 950.1 |
| 20260506102258 | 71 | 185 | 2.0 | 12.0 | 0.00 | 0.00 | 0.00 | 100 | 950.1 |
| 20260506102055 | 71 | 200 | 2.0 | 9.0 | 0.00 | 0.00 | 0.00 | 100 | 950.2 |
| 20260506101954 | 71 | 213 | 2.0 | 6.0 | 0.00 | 0.00 | 0.00 | 100 | 950.2 |
| 20260506101852 | 71 | 218 | 2.0 | 6.0 | 0.00 | 0.00 | 0.00 | 100 | 950.2 |
| 20260506101649 | 71 | 228 | 1.0 | 8.0 | 0.00 | 0.00 | 0.00 | 100 | 950.3 |
| 20260506101446 | 70 | 214 | 2.0 | 8.0 | 0.00 | 0.00 | 0.00 | 100 | 950.3 |
| 20260506101345 | 70 | 207 | 2.0 | 8.0 | 0.00 | 0.00 | 0.00 | 100 | 950.4 |
| 20260506101242 | 70 | 210 | 2.0 | 10.0 | 0.00 | 0.00 | 0.00 | 100 | 950.4 |
| 20260506101040 | 69 | 217 | 2.0 | 12.0 | 0.00 | 0.00 | 0.00 | 100 | 950.2 |
| 20260506100836 | 68 | 221 | 2.0 | 8.0 | 0.00 | 0.00 | 0.00 | 100 | 950.3 |
| 20260506100736 | 68 | 217 | 2.0 | 10.0 | 0.00 | 0.00 | 0.00 | 100 | 950.2 |
| 20260506100633 | 68 | 219 | 2.0 | 10.0 | 0.00 | 0.00 | 0.00 | 100 | 950.2 |
| 20260506100429 | 68 | 242 | 3.0 | 15.0 | 0.00 | 0.00 | 0.00 | 100 | 950.3 |
| 20260506100226 | 67 | 247 | 4.0 | 15.0 | 0.00 | 0.00 | 0.00 | 100 | 950.3 |
| 20260506100126 | 67 | 242 | 4.0 | 15.0 | 0.00 | 0.00 | 0.00 | 100 | 950.2 |
| 20260506100023 | 67 | 241 | 5.0 | 15.0 | 0.00 | 0.00 | 0.00 | 100 | 950.2 |
| 20260506095820 | 67 | 250 | 6.0 | 17.0 | 0.00 | 0.00 | 0.00 | 100 | 950.2 |
| 20260506095617 | 67 | 253 | 6.0 | 17.0 | 0.00 | 0.00 | 0.00 | 100 | 950.1 |
| 20260506095516 | 68 | 250 | 5.0 | 17.0 | 0.00 | 0.00 | 0.00 | 100 | 950.2 |
| 20260506095413 | 68 | 246 | 5.0 | 16.0 | 0.00 | 0.00 | 0.00 | 100 | 950.2 |
| 20260506095211 | 68 | 237 | 5.0 | 19.0 | 0.00 | 0.00 | 0.00 | 100 | 950.0 |
| 20260506095008 | 68 | 265 | 7.0 | 19.0 | 0.00 | 0.00 | 0.00 | 100 | 950.0 |
| 20260506094907 | 67 | 269 | 7.0 | 19.0 | 0.00 | 0.00 | 0.00 | 100 | 949.8 |
| 20260506094805 | 67 | 269 | 7.0 | 16.0 | 0.00 | 0.00 | 0.00 | 100 | 950.0 |
| 20260506094602 | 69 | 243 | 3.0 | 16.0 | 0.00 | 0.00 | 0.00 | 100 | 950.1 |
| 20260506094358 | 70 | 266 | 2.0 | 8.0 | 0.00 | 0.00 | 0.00 | 100 | 950.1 |
| 20260506094258 | 70 | 0 | 2.0 | 7.0 | 0.00 | 0.00 | 0.00 | 100 | 950.1 |
| 20260506094155 | 70 | 238 | 2.0 | 9.0 | 0.00 | 0.00 | 0.00 | 100 | 950.2 |
| 20260506093952 | 70 | 229 | 3.0 | 9.0 | 0.00 | 0.00 | 0.00 | 100 | 950.2 |
| 20260506093749 | 69 | 233 | 2.0 | 9.0 | 0.00 | 0.00 | 0.00 | 100 | 950.1 |
| 20260506093648 | 69 | 229 | 2.0 | 8.0 | 0.00 | 0.00 | 0.00 | 100 | 950.2 |
| 20260506093545 | 69 | 232 | 2.0 | 12.0 | 0.00 | 0.00 | 0.00 | 100 | 950.1 |
| 20260506093342 | 69 | 228 | 2.0 | 12.0 | 0.00 | 0.00 | 0.00 | 100 | 950.1 |
| 20260506093140 | 69 | 237 | 4.0 | 17.0 | 0.00 | 0.00 | 0.00 | 100 | 950.0 |
| 20260506093039 | 69 | 246 | 4.0 | 17.0 | 0.00 | 0.00 | 0.00 | 100 | 950.0 |
| 20260506092936 | 69 | 247 | 4.0 | 17.0 | 0.00 | 0.00 | 0.00 | 100 | 950.0 |
| 20260506092733 | 68 | 241 | 4.0 | 15.0 | 0.00 | 0.00 | 0.00 | 100 | 950.0 |
| 20260506092530 | 68 | 227 | 2.0 | 12.0 | 0.00 | 0.00 | 0.00 | 100 | 949.9 |
| 20260506092430 | 68 | 221 | 2.0 | 11.0 | 0.00 | 0.00 | 0.00 | 100 | 949.9 |
| 20260506092328 | 68 | 218 | 2.0 | 11.0 | 0.00 | 0.00 | 0.00 | 100 | 950.0 |
| 20260506092124 | 68 | 217 | 2.0 | 9.0 | 0.00 | 0.00 | 0.00 | 100 | 949.9 |
| 20260506091922 | 68 | 220 | 2.0 | 9.0 | 0.00 | 0.00 | 0.00 | 100 | 950.0 |
| 20260506091821 | 67 | 227 | 2.0 | 9.0 | 0.00 | 0.00 | 0.00 | 100 | 949.9 |
| 20260506091718 | 67 | 235 | 2.0 | 9.0 | 0.00 | 0.00 | 0.00 | 100 | 949.9 |
| 20260506091515 | 67 | 244 | 2.0 | 10.0 | 0.00 | 0.00 | 0.00 | 100 | 950.0 |
| 20260506091312 | 67 | 241 | 3.0 | 10.0 | 0.00 | 0.00 | 0.00 | 100 | 950.0 |
| 20260506091212 | 67 | 235 | 3.0 | 10.0 | 0.00 | 0.00 | 0.00 | 100 | 950.0 |
| 20260506091109 | 67 | 214 | 2.0 | 10.0 | 0.00 | 0.00 | 0.00 | 100 | 949.9 |
| 20260506090906 | 67 | 214 | 2.0 | 8.0 | 0.00 | 0.00 | 0.00 | 100 | 950.0 |
| 20260506090703 | 68 | 215 | 2.0 | 8.0 | 0.00 | 0.00 | 0.00 | 100 | 949.9 |
| 20260506090603 | 68 | 224 | 2.0 | 8.0 | 0.00 | 0.00 | 0.00 | 100 | 949.9 |
| 20260506090500 | 68 | 240 | 2.0 | 8.0 | 0.00 | 0.00 | 0.00 | 100 | 950.1 |
| 20260506090257 | 68 | 239 | 2.0 | 8.0 | 0.00 | 0.00 | 0.00 | 100 | 950.0 |
| 20260506090053 | 68 | 243 | 3.0 | 14.0 | 0.00 | 0.00 | 0.00 | 100 | 950.0 |
| 20260506085953 | 68 | 245 | 3.0 | 14.0 | 0.00 | 0.00 | 0.00 | 100 | 950.0 |
| 20260506085850 | 67 | 247 | 3.0 | 14.0 | 0.00 | 0.00 | 0.00 | 100 | 950.0 |
| 20260506085647 | 67 | 218 | 2.0 | 9.0 | 0.00 | 0.00 | 0.00 | 100 | 949.9 |
| 20260506085444 | 67 | 229 | 2.0 | 20.0 | 0.00 | 0.00 | 0.00 | 100 | 949.9 |
| 20260506085343 | 67 | 224 | 3.0 | 20.0 | 0.00 | 0.00 | 0.00 | 100 | 949.8 |
| 20260506085240 | 67 | 226 | 3.0 | 20.0 | 0.00 | 0.00 | 0.00 | 100 | 949.9 |
| 20260506085038 | 67 | 216 | 2.0 | 10.0 | 0.00 | 0.00 | 0.00 | 100 | 949.9 |
| 20260506084835 | 67 | 235 | 3.0 | 15.0 | 0.00 | 0.00 | 0.00 | 100 | 950.0 |
| 20260506084734 | 67 | 237 | 3.0 | 15.0 | 0.00 | 0.00 | 0.00 | 100 | 949.9 |
| 20260506084632 | 67 | 234 | 3.0 | 15.0 | 0.00 | 0.00 | 0.00 | 100 | 949.9 |
| 20260506084430 | 67 | 226 | 2.0 | 12.0 | 0.00 | 0.00 | 0.00 | 100 | 949.9 |
| 20260506084227 | 67 | 236 | 3.0 | 17.0 | 0.00 | 0.00 | 0.00 | 100 | 949.9 |
| 20260506084127 | 67 | 244 | 4.0 | 17.0 | 0.00 | 0.00 | 0.00 | 100 | 949.9 |
| 20260506084024 | 67 | 247 | 4.0 | 17.0 | 0.00 | 0.00 | 0.00 | 100 | 949.7 |
| 20260506083821 | 66 | 239 | 4.0 | 12.0 | 0.00 | 0.00 | 0.00 | 100 | 949.9 |
| 20260506083618 | 67 | 222 | 3.0 | 12.0 | 0.00 | 0.00 | 0.00 | 100 | 949.9 |
| 20260506083517 | 67 | 228 | 3.0 | 12.0 | 0.00 | 0.00 | 0.00 | 100 | 949.9 |
| 20260506083415 | 67 | 226 | 2.0 | 10.0 | 0.00 | 0.00 | 0.00 | 100 | 949.8 |
| 20260506083212 | 67 | 184 | 3.0 | 14.0 | 0.00 | 0.00 | 0.00 | 100 | 949.9 |
| 20260506083009 | 67 | 209 | 4.0 | 14.0 | 0.00 | 0.00 | 0.00 | 100 | 949.8 |
| 20260506082908 | 67 | 223 | 3.0 | 13.0 | 0.00 | 0.00 | 0.00 | 100 | 949.8 |
| 20260506082805 | 66 | 238 | 4.0 | 13.0 | 0.00 | 0.00 | 0.00 | 100 | 949.7 |
| 20260506082551 | 66 | 223 | 3.0 | 13.0 | 0.00 | 0.00 | 0.00 | 100 | 949.7 |
| 20260506082349 | 66 | 219 | 2.0 | 8.0 | 0.00 | 0.00 | 0.00 | 100 | 949.8 |
| 20260506082248 | 66 | 226 | 2.0 | 12.0 | 0.00 | 0.00 | 0.00 | 100 | 949.7 |
| 20260506082145 | 66 | 229 | 2.0 | 12.0 | 0.00 | 0.00 | 0.00 | 100 | 949.8 |
| 20260506081942 | 66 | 240 | 2.0 | 14.0 | 0.00 | 0.00 | 0.00 | 100 | 949.8 |
| 20260506081739 | 66 | 227 | 3.0 | 14.0 | 0.00 | 0.00 | 0.00 | 100 | 949.8 |
| 20260506081638 | 65 | 231 | 3.0 | 14.0 | 0.00 | 0.00 | 0.00 | 100 | 949.8 |
| 20260506081536 | 65 | 223 | 2.0 | 10.0 | 0.00 | 0.00 | 0.00 | 100 | 949.9 |
| 20260506081333 | 65 | 218 | 2.0 | 13.0 | 0.00 | 0.00 | 0.00 | 100 | 949.8 |
| 20260506081130 | 66 | 218 | 2.0 | 13.0 | 0.00 | 0.00 | 0.00 | 100 | 949.8 |
| 20260506081029 | 66 | 220 | 2.0 | 13.0 | 0.00 | 0.00 | 0.00 | 100 | 949.8 |
| 20260506080927 | 66 | 224 | 2.0 | 7.0 | 0.00 | 0.00 | 0.00 | 100 | 949.9 |
| 20260506080724 | 65 | 225 | 2.0 | 9.0 | 0.00 | 0.00 | 0.00 | 100 | 949.8 |
| 20260506080520 | 65 | 223 | 2.0 | 10.0 | 0.00 | 0.00 | 0.00 | 100 | 949.9 |
| 20260506080420 | 65 | 222 | 2.0 | 10.0 | 0.00 | 0.00 | 0.00 | 100 | 949.7 |
| 20260506080317 | 65 | 221 | 2.0 | 10.0 | 0.00 | 0.00 | 0.00 | 100 | 949.8 |
| 20260506080114 | 65 | 223 | 2.0 | 7.0 | 0.00 | 0.00 | 0.00 | 100 | 949.8 |